AA3283 / N751SK 7700 Squawk Report (6th of January, 2021)

Aircraft CRJ7 Reg No. N751SK Age N/A
Model Regional-Jet Jet engines 2 First flight 04-05
Registered 01-06-17 Rollout 04-05 Delivered 28-04-05
Construction No. 10208 Line No. N/A Series 700
ADSHEX AA1F5A Airline name Envoy Air Owner SkyWest Airlines
Airfield based Chicago O`Hare~IL~N First tracked N/A

Flight history for N751SK

Route Flight No Date Playback
Dallas Fort Worth (DFW) - Aspen - Pitkin County Airport (ASE) AA3250 2021-03-02 16:28:00
Lafayette Rgnl (LFT) - Dallas Fort Worth (DFW) AA2965 2021-03-02 13:18:00
Dallas Fort Worth (DFW) - Lafayette Rgnl (LFT) AA3063 2021-03-01 22:17:00
General Mitchell Intl (MKE) - Dallas Fort Worth (DFW) AA3119 2021-03-01 19:22:00
Chicago Ohare Intl (ORD) - General Mitchell Intl (MKE) AA3201 2021-03-01 16:36:00
???? AA3177 2021-03-01 03:04:00
Chicago Ohare Intl (ORD) - Nashville Intl (BNA) - Chicago Ohare Intl (ORD) AA3138 2021-02-28 22:39:00
Chicago Ohare Intl (ORD) - Salt Lake City Intl (SLC) DL1305 2021-02-28 20:04:00
Salt Lake City Intl (SLC) - Chicago Ohare Intl (ORD) AA3003 2021-02-28 18:34:00
Phoenix Sky Harbor Intl (PHX) - Salt Lake City Intl (SLC) AA3293 2021-02-28 04:43:00
Palm Springs Intl (PSP) - Phoenix Sky Harbor Intl (PHX) AA3140 2021-02-28 02:02:00
Dallas Fort Worth (DFW) - Palm Springs Intl (PSP) AA2977 2021-02-27 23:56:00
Santa Fe Muni (SAF) - Dallas Fort Worth (DFW) AA3084 2021-02-27 18:58:00
Sanford Regional (SFM) - Dallas Fort Worth (DFW) AA3185 2021-02-27 13:12:00
Dallas Fort Worth (DFW) - Fort Smith Rgnl (FSM) AA3184 2021-02-27 03:41:00
Dallas Fort Worth (DFW) - The Eastern Iowa Airport (CID) - Dallas Fort Worth (DFW) AA2951 2021-02-27 01:32:00
Dallas Fort Worth (DFW) - Durango La Plata Co (DRO) - Dallas Fort Worth (DFW) AA3284 2021-02-26 19:38:00
San Angelo Rgnl Mathis Fld (SJT) - Dallas Fort Worth (DFW) AA3027 2021-02-26 13:09:00
Dallas Fort Worth (DFW) - San Angelo Rgnl Mathis Fld (SJT) AA2958 2021-02-25 23:59:00
Dallas Fort Worth (DFW) - Tallahassee Rgnl (TLH) - Dallas Fort Worth (DFW) AA3059 2021-02-25 21:43:00
Time Lat Lon Altitude Heading Speed Vertical Rate
2021-01-06 23:52:20 GMT 37.631470 -97.447617 1,350 20 119 -576
2021-01-06 23:52:10 GMT 37.625286 -97.450523 1,475 19 118 -704
2021-01-06 23:51:55 GMT 37.618423 -97.453583 1,625 19 118 -512
2021-01-06 23:51:49 GMT 37.615093 -97.455116 1,675 19 115 -640
2021-01-06 23:51:38 GMT 37.609879 -97.457504 1,800 19 117 -448
2021-01-06 23:51:26 GMT 37.603867 -97.460243 1,925 20 113 -704
2021-01-06 23:51:17 GMT 37.599312 -97.462341 2,025 20 116 -640
2021-01-06 23:51:06 GMT 37.594006 -97.464851 2,150 20 113 -576
2021-01-06 23:50:56 GMT 37.588837 -97.467178 2,250 19 109 -640
2021-01-06 23:50:46 GMT 37.583996 -97.469330 2,350 19 108 -576
2021-01-06 23:50:36 GMT 37.578918 -97.471642 2,450 20 103 -576
2021-01-06 23:50:25 GMT 37.574295 -97.473740 2,575 19 104 -640
2021-01-06 23:50:15 GMT 37.569397 -97.475960 2,650 20 102 -448
2021-01-06 23:50:03 GMT 37.564774 -97.478127 2,750 20 103 -576
2021-01-06 23:49:54 GMT 37.560066 -97.480316 2,875 19 106 -512
2021-01-06 23:49:42 GMT 37.554993 -97.482582 2,925 19 111 64
2021-01-06 23:49:33 GMT 37.550034 -97.484848 2,900 19 116 -64
2021-01-06 23:49:21 GMT 37.544495 -97.487297 2,900 19 118 64
2021-01-06 23:49:09 GMT 37.537258 -97.490585 2,900 19 123 0
2021-01-06 23:49:01 GMT 37.533417 -97.492386 2,900 20 132 -64
2021-01-06 23:48:51 GMT 37.527061 -97.495361 2,925 20 145 -128
2021-01-06 23:48:40 GMT 37.520451 -97.498466 2,925 20 156 128
2021-01-06 23:48:29 GMT 37.513237 -97.501808 2,925 20 157 -64
2021-01-06 23:48:19 GMT 37.505974 -97.505272 2,925 20 158 0
2021-01-06 23:48:08 GMT 37.498806 -97.508621 2,925 19 159 0
2021-01-06 23:47:58 GMT 37.491577 -97.511665 2,925 17 159 0
2021-01-06 23:47:47 GMT 37.484142 -97.514168 2,925 3 158 64
2021-01-06 23:47:38 GMT 37.476334 -97.512367 2,925 339 160 0
2021-01-06 23:47:27 GMT 37.469376 -97.508919 2,925 339 160 0
2021-01-06 23:47:17 GMT 37.461842 -97.505157 2,925 338 161 0
2021-01-06 23:47:05 GMT 37.454361 -97.501205 2,925 337 160 64
2021-01-06 23:46:56 GMT 37.447830 -97.497330 2,925 328 160 64
2021-01-06 23:46:44 GMT 37.442383 -97.489929 2,925 293 170 0
2021-01-06 23:46:34 GMT 37.440720 -97.478416 2,925 273 183 0
2021-01-06 23:46:24 GMT 37.440430 -97.468674 2,925 273 185 0
2021-01-06 23:46:14 GMT 37.440079 -97.457382 2,925 273 185 -64
2021-01-06 23:46:03 GMT 37.439732 -97.446281 2,925 273 184 0
2021-01-06 23:45:51 GMT 37.439358 -97.432907 2,925 272 183 0
2021-01-06 23:45:41 GMT 37.439255 -97.423248 2,925 270 183 -64
2021-01-06 23:45:32 GMT 37.440521 -97.411835 2,925 247 190 0
2021-01-06 23:45:20 GMT 37.445984 -97.402214 2,925 219 202 64
2021-01-06 23:45:10 GMT 37.454407 -97.396545 2,925 200 211 0
2021-01-06 23:44:58 GMT 37.465393 -97.391869 2,925 199 212 0
2021-01-06 23:44:49 GMT 37.473679 -97.388420 2,925 199 213 0
2021-01-06 23:44:39 GMT 37.483349 -97.384361 2,925 199 214 64
2021-01-06 23:44:29 GMT 37.493271 -97.380302 2,925 199 213 -64
2021-01-06 23:44:19 GMT 37.503296 -97.376091 2,925 199 215 64
2021-01-06 23:44:07 GMT 37.513458 -97.371826 2,925 199 213 0
2021-01-06 23:43:57 GMT 37.523617 -97.367523 2,925 199 211 -64
2021-01-06 23:43:46 GMT 37.533005 -97.363525 2,925 199 211 64
2021-01-06 23:43:37 GMT 37.542572 -97.359436 2,925 199 209 0
2021-01-06 23:43:19 GMT 37.557495 -97.350494 2,925 208 207 0
2021-01-06 23:43:14 GMT 37.561798 -97.346466 2,925 217 204 -64
2021-01-06 23:43:04 GMT 37.568447 -97.340302 2,900 217 206 0
2021-01-06 23:42:55 GMT 37.576500 -97.332718 2,900 218 211 64
2021-01-06 23:42:44 GMT 37.584549 -97.324959 2,925 218 217 -64
2021-01-06 23:42:34 GMT 37.593723 -97.316238 2,900 218 231 -128
2021-01-06 23:42:23 GMT 37.602943 -97.307281 2,925 218 233 64
2021-01-06 23:42:12 GMT 37.611835 -97.298561 2,925 219 232 128
2021-01-06 23:42:00 GMT 37.621033 -97.289429 2,900 219 231 -64
2021-01-06 23:41:50 GMT 37.630646 -97.279785 2,925 219 234 -64
2021-01-06 23:41:39 GMT 37.639206 -97.271217 2,925 218 234 0
2021-01-06 23:41:29 GMT 37.648190 -97.263634 2,925 207 233 -192
2021-01-06 23:41:18 GMT 37.658993 -97.258018 3,025 202 239 -768
2021-01-06 23:41:08 GMT 37.669514 -97.252945 3,150 201 243 -768
2021-01-06 23:40:59 GMT 37.680176 -97.247818 3,275 202 247 -704
2021-01-06 23:40:47 GMT 37.691952 -97.242142 3,425 201 254 -832
2021-01-06 23:40:38 GMT 37.703430 -97.236656 3,575 201 262 -896
2021-01-06 23:40:26 GMT 37.715927 -97.230812 3,775 201 271 -1216
2021-01-06 23:40:17 GMT 37.727982 -97.225243 3,975 201 279 -1152
2021-01-06 23:40:06 GMT 37.740326 -97.219536 4,200 200 284 -1216
2021-01-06 23:39:56 GMT 37.754242 -97.213226 4,425 200 285 -1152
2021-01-06 23:39:45 GMT 37.766647 -97.207497 4,625 201 284 -1152
2021-01-06 23:39:35 GMT 37.779610 -97.201416 4,825 201 283 -1152
2021-01-06 23:39:24 GMT 37.792412 -97.195450 5,000 201 285 -832
2021-01-06 23:39:14 GMT 37.805328 -97.189262 5,150 201 281 -896
2021-01-06 23:39:03 GMT 37.817825 -97.183189 5,325 202 275 -960
2021-01-06 23:38:52 GMT 37.830303 -97.176994 5,475 202 275 -896
2021-01-06 23:38:42 GMT 37.843002 -97.170563 5,650 202 275 -896
2021-01-06 23:38:31 GMT 37.855350 -97.163979 5,800 205 276 -832
2021-01-06 23:38:22 GMT 37.867172 -97.157181 5,950 205 277 -896
2021-01-06 23:38:10 GMT 37.879833 -97.149773 6,125 205 274 -1088
2021-01-06 23:38:01 GMT 37.891567 -97.142906 6,325 205 272 -1152
2021-01-06 23:37:49 GMT 37.903564 -97.135857 6,575 207 269 -1408
2021-01-06 23:37:40 GMT 37.914749 -97.127556 6,825 218 265 -1536
2021-01-06 23:37:28 GMT 37.924385 -97.116928 7,100 223 267 -1536
2021-01-06 23:37:19 GMT 37.933929 -97.106003 7,350 223 268 -1536
2021-01-06 23:37:07 GMT 37.943802 -97.094482 7,625 223 271 -1536
2021-01-06 23:36:58 GMT 37.953369 -97.083435 7,875 223 276 -1408
2021-01-06 23:36:47 GMT 37.963669 -97.071457 8,100 223 280 -1216
2021-01-06 23:36:37 GMT 37.973969 -97.059357 8,325 223 282 -1216
2021-01-06 23:36:26 GMT 37.983353 -97.048317 8,525 223 283 -1216
2021-01-06 23:36:15 GMT 37.993515 -97.036446 8,725 223 285 -1216
2021-01-06 23:36:04 GMT 38.004135 -97.024063 8,950 223 286 -1280
2021-01-06 23:35:54 GMT 38.014000 -97.012558 9,175 223 286 -1280
2021-01-06 23:35:45 GMT 38.024288 -97.000557 9,400 223 283 -1280
2021-01-06 23:35:33 GMT 38.034348 -96.988823 9,600 223 278 -1280
2021-01-06 23:35:21 GMT 38.047283 -96.973930 9,850 223 285 -960
2021-01-06 23:35:13 GMT 38.054405 -96.965691 9,900 223 297 -64
2021-01-06 23:35:03 GMT 38.065300 -96.953094 9,925 223 317 64
2021-01-06 23:34:50 GMT 38.078339 -96.937927 9,925 223 322 -64
2021-01-06 23:34:42 GMT 38.088455 -96.926117 9,950 223 323 -192
2021-01-06 23:34:30 GMT 38.100494 -96.912071 9,975 223 324 -320
2021-01-06 23:34:09 GMT 38.123703 -96.884918 10,450 223 341 -2688
2021-01-06 23:34:00 GMT 38.135502 -96.871056 11,050 223 347 -3776
2021-01-06 23:33:46 GMT 38.151188 -96.852722 11,950 224 351 -4096
2021-01-06 23:33:39 GMT 38.159706 -96.840660 12,500 234 355 -4288
2021-01-06 23:33:27 GMT 38.170441 -96.821747 13,300 235 360 -4160
2021-01-06 23:33:16 GMT 38.181026 -96.802750 14,050 236 368 -4224
2021-01-06 23:33:08 GMT 38.190434 -96.785667 14,750 236 374 -4352
2021-01-06 23:32:57 GMT 38.200607 -96.766876 15,525 236 380 -4736
2021-01-06 23:32:47 GMT 38.211243 -96.747398 16,350 235 387 -4928
2021-01-06 23:32:35 GMT 38.222488 -96.727081 17,400 236 388 -6080
2021-01-06 23:32:26 GMT 38.232609 -96.708588 18,425 235 387 -6080
2021-01-06 23:32:14 GMT 38.243782 -96.688583 19,525 235 384 -6080
2021-01-06 23:32:00 GMT 38.259933 -96.659683 21,175 235 378 -6080
2021-01-06 23:31:55 GMT 38.263378 -96.653473 21,525 236 388 -5056
2021-01-06 23:31:51 GMT 38.267429 -96.646194 21,925 235 378 -5696
2021-01-06 23:31:43 GMT 38.276871 -96.629311 22,725 235 380 -5056
2021-01-06 23:31:31 GMT 38.287674 -96.609970 23,650 235 382 -5184
2021-01-06 23:31:22 GMT 38.298386 -96.590660 24,575 236 384 -5056
2021-01-06 23:31:10 GMT 38.308998 -96.571259 25,450 236 388 -4992
2021-01-06 23:31:04 GMT 38.315517 -96.559258 26,025 236 389 -5248
2021-01-06 23:31:01 GMT 38.319351 -96.552353 26,350 236 389 -5440
2021-01-06 23:30:52 GMT 38.330704 -96.531723 27,775 236 389 -5440
2021-01-06 23:30:49 GMT 38.330704 -96.531723 27,350 236 388 -5504
2021-01-06 23:30:40 GMT 38.341026 -96.512741 28,300 236 387 -5376
2021-01-06 23:30:34 GMT 38.347172 -96.501579 29,200 236 385 -5120
2021-01-06 23:30:28 GMT 38.352108 -96.492683 29,250 236 386 -4736
2021-01-06 23:30:22 GMT 38.358810 -96.480377 29,750 236 387 -4416
2021-01-06 23:30:19 GMT 38.362610 -96.473457 30,025 236 387 -4352
2021-01-06 23:30:08 GMT 38.373241 -96.454170 30,750 236 390 -4160
2021-01-06 23:30:02 GMT 38.379433 -96.442825 31,175 236 393 -4096
2021-01-06 23:29:58 GMT 38.384602 -96.433334 31,525 236 394 -4096
2021-01-06 23:29:51 GMT 38.390373 -96.422585 32,400 236 397 -3904
2021-01-06 23:29:46 GMT 38.396027 -96.411980 32,875 236 399 -3904
2021-01-06 23:29:40 GMT 38.402847 -96.399124 32,675 237 401 -3840
2021-01-06 23:29:37 GMT 38.406063 -96.393089 32,875 237 402 -3712
2021-01-06 23:29:28 GMT 38.415421 -96.375366 33,425 236 405 -3776
2021-01-06 23:29:24 GMT 38.418816 -96.369019 33,650 236 405 -3840
2021-01-06 23:29:21 GMT 38.422447 -96.362366 33,850 236 407 -3776
2021-01-06 23:29:16 GMT 38.428162 -96.351952 34,200 236 408 -3456
2021-01-06 23:29:13 GMT 38.430084 -96.348366 34,300 236 409 -3456
2021-01-06 23:29:07 GMT 38.438183 -96.333496 34,750 236 412 -3520
2021-01-06 23:29:03 GMT 38.441345 -96.327705 34,875 236 412 -3456
2021-01-06 23:28:58 GMT 38.447845 -96.315704 35,225 236 415 -3584
2021-01-06 23:28:55 GMT 38.456711 -96.299438 35,575 236 416 -3264
2021-01-06 23:28:49 GMT 38.456711 -96.299438 35,650 236 417 -2688
2021-01-06 23:28:46 GMT 38.461132 -96.291321 35,800 236 418 -1984
2021-01-06 23:28:42 GMT 38.463741 -96.286499 35,875 236 419 -1600
2021-01-06 23:28:39 GMT 38.467621 -96.279404 35,975 236 420 -896
2021-01-06 23:28:36 GMT 38.471146 -96.272896 36,000 236 420 0
2021-01-06 23:28:33 GMT 38.475471 -96.264954 35,975 236 420 64
2021-01-06 23:28:28 GMT 38.480358 -96.255981 35,975 236 420 0
2021-01-06 23:28:25 GMT 38.484081 -96.249084 36,000 236 421 -64
2021-01-06 23:28:22 GMT 38.485901 -96.245789 36,000 236 421 -64
2021-01-06 23:28:18 GMT 38.491104 -96.236237 36,000 236 421 0
2021-01-06 23:28:13 GMT 38.497166 -96.224976 36,000 236 422 0
2021-01-06 23:28:08 GMT 38.503124 -96.213928 36,000 236 422 0
2021-01-06 23:28:05 GMT 38.506706 -96.207397 36,000 236 422 64
2021-01-06 23:28:02 GMT 38.516556 -96.189125 36,000 236 422 64
2021-01-06 23:27:55 GMT 38.516556 -96.189125 36,000 236 423 0
2021-01-06 23:27:51 GMT 38.522022 -96.179077 36,000 236 424 -64
2021-01-06 23:27:46 GMT 38.526123 -96.171448 36,000 236 424 -64
2021-01-06 23:27:41 GMT 38.532166 -96.160286 36,000 236 424 -64
2021-01-06 23:27:38 GMT 38.535152 -96.154724 36,000 236 425 -64
2021-01-06 23:27:34 GMT 38.539719 -96.146255 36,000 236 425 -64
2021-01-06 23:27:31 GMT 38.543747 -96.138786 36,000 236 425 -64
2021-01-06 23:27:23 GMT 38.551678 -96.124146 36,000 236 426 -64
2021-01-06 23:27:19 GMT 38.555912 -96.116211 36,000 236 427 0
2021-01-06 23:27:16 GMT 38.560616 -96.107544 36,000 236 426 0
2021-01-06 23:27:13 GMT 38.562973 -96.103203 36,000 236 426 0
2021-01-06 23:27:10 GMT 38.567551 -96.094727 36,000 236 426 0
2021-01-06 23:27:02 GMT 38.575603 -96.079773 36,000 236 425 0
2021-01-06 23:26:59 GMT 38.578857 -96.073769 36,000 236 426 64
2021-01-06 23:26:54 GMT 38.585999 -96.060570 36,000 236 426 64
2021-01-06 23:26:51 GMT 38.588779 -96.055420 36,000 236 425 64
2021-01-06 23:26:48 GMT 38.590485 -96.052277 36,000 236 425 64
2021-01-06 23:26:44 GMT 38.595795 -96.042358 36,000 236 425 64
2021-01-06 23:26:41 GMT 38.598450 -96.037407 36,000 236 425 64
2021-01-06 23:26:38 GMT 38.602371 -96.030151 36,000 236 425 0
2021-01-06 23:26:32 GMT 38.609680 -96.016479 36,000 236 425 0
2021-01-06 23:26:27 GMT 38.614059 -96.008446 36,000 236 425 -64
2021-01-06 23:26:24 GMT 38.619270 -95.998718 36,000 236 424 -64
2021-01-06 23:26:18 GMT 38.625824 -95.986534 36,000 236 424 0
2021-01-06 23:26:11 GMT 38.633148 -95.972923 36,000 236 424 0
2021-01-06 23:26:06 GMT 38.641800 -95.956802 36,000 236 424 0
2021-01-06 23:26:03 GMT 38.641800 -95.956802 36,000 236 424 0
2021-01-06 23:26:00 GMT 38.644783 -95.951294 36,000 236 421 0
2021-01-06 23:25:57 GMT 38.648552 -95.944275 36,000 236 423 0
2021-01-06 23:25:50 GMT 38.656326 -95.929810 36,000 236 422 0
2021-01-06 23:25:45 GMT 38.660843 -95.921394 36,000 236 422 0
2021-01-06 23:25:40 GMT 38.667023 -95.909866 36,000 236 422 0
2021-01-06 23:25:36 GMT 38.671967 -95.900574 36,000 236 422 0
2021-01-06 23:25:28 GMT 38.679382 -95.886818 36,000 236 422 0
2021-01-06 23:25:23 GMT 38.685654 -95.875122 36,000 236 422 0
2021-01-06 23:25:18 GMT 38.690960 -95.865234 36,000 236 421 0
2021-01-06 23:25:14 GMT 38.696365 -95.855179 36,000 236 421 0
2021-01-06 23:25:11 GMT 38.705154 -95.838699 36,000 236 421 0
2021-01-06 23:25:06 GMT 38.705154 -95.838699 36,000 236 421 0
2021-01-06 23:25:03 GMT 38.706940 -95.835411 36,000 236 421 0
2021-01-06 23:24:57 GMT 38.714401 -95.821442 36,000 236 421 0
2021-01-06 23:24:54 GMT 38.718243 -95.814270 36,000 236 421 0
2021-01-06 23:24:45 GMT 38.728294 -95.795349 36,000 236 421 -64
2021-01-06 23:24:42 GMT 38.729965 -95.792244 36,000 236 421 -64
2021-01-06 23:24:37 GMT 38.737328 -95.778503 36,000 236 421 0
2021-01-06 23:24:32 GMT 38.742355 -95.769043 36,000 236 421 -64
2021-01-06 23:24:28 GMT 38.745846 -95.762451 36,000 236 420 0
2021-01-06 23:24:24 GMT 38.750874 -95.753052 36,000 236 420 -64
2021-01-06 23:24:21 GMT 38.753063 -95.748962 36,000 236 420 64
2021-01-06 23:24:16 GMT 38.759674 -95.736633 36,000 236 420 -64
2021-01-06 23:24:12 GMT 38.764050 -95.728394 36,000 236 420 -64
2021-01-06 23:24:05 GMT 38.771164 -95.715103 36,000 236 420 -64
2021-01-06 23:24:00 GMT 38.775742 -95.706505 36,000 236 419 64
2021-01-06 23:23:55 GMT 38.782928 -95.692947 36,000 236 419 64
2021-01-06 23:23:51 GMT 38.787323 -95.684769 36,000 236 419 64
2021-01-06 23:23:47 GMT 38.790573 -95.678619 36,000 236 419 64
2021-01-06 23:23:44 GMT 38.794098 -95.672050 36,000 236 419 64
2021-01-06 23:23:41 GMT 38.797577 -95.665482 36,000 236 419 64
2021-01-06 23:23:37 GMT 38.801926 -95.657303 36,000 236 419 0
2021-01-06 23:23:33 GMT 38.805634 -95.650314 36,000 236 419 -64
2021-01-06 23:23:30 GMT 38.809982 -95.642075 36,000 236 419 -64
2021-01-06 23:23:23 GMT 38.816372 -95.630005 36,000 236 419 0
2021-01-06 23:23:19 GMT 38.821289 -95.620758 36,000 236 418 64
2021-01-06 23:23:15 GMT 38.824951 -95.613838 36,000 236 418 64
2021-01-06 23:23:12 GMT 38.828018 -95.608101 36,000 236 417 0
2021-01-06 23:23:09 GMT 38.833008 -95.598671 36,000 236 418 0
2021-01-06 23:23:06 GMT 38.836159 -95.592773 36,000 236 418 0
2021-01-06 23:23:02 GMT 38.840195 -95.585175 36,000 236 418 0
2021-01-06 23:22:57 GMT 38.844444 -95.577209 36,000 236 418 0
2021-01-06 23:22:54 GMT 38.847794 -95.570908 36,000 236 417 0
2021-01-06 23:22:51 GMT 38.852829 -95.561470 36,000 236 417 0
2021-01-06 23:22:47 GMT 38.856407 -95.554749 36,000 236 417 0
2021-01-06 23:22:44 GMT 38.860085 -95.547791 36,000 236 417 0
2021-01-06 23:22:41 GMT 38.862808 -95.542725 36,000 236 416 -64
2021-01-06 23:22:37 GMT 38.866604 -95.535583 36,000 236 417 0
2021-01-06 23:22:34 GMT 38.870049 -95.529053 36,000 236 416 0
2021-01-06 23:22:31 GMT 38.873539 -95.522522 36,000 236 416 0
2021-01-06 23:22:27 GMT 38.878189 -95.513763 36,000 236 416 0
2021-01-06 23:22:21 GMT 38.884571 -95.501709 36,000 236 415 -64
2021-01-06 23:22:18 GMT 38.887253 -95.496628 36,000 236 415 0
2021-01-06 23:22:15 GMT 38.890503 -95.490479 36,000 236 415 0
2021-01-06 23:22:12 GMT 38.893185 -95.485413 36,000 236 415 0
2021-01-06 23:22:09 GMT 38.896397 -95.479309 36,000 236 415 0
2021-01-06 23:22:05 GMT 38.901379 -95.469971 36,000 237 414 -64
2021-01-06 23:22:02 GMT 38.903824 -95.465279 36,000 237 414 0
2021-01-06 23:21:59 GMT 38.907383 -95.458557 36,000 236 414 0
2021-01-06 23:21:55 GMT 38.912842 -95.448204 36,000 236 414 64
2021-01-06 23:21:50 GMT 38.918556 -95.437439 36,000 236 414 0
2021-01-06 23:21:46 GMT 38.922188 -95.430542 36,000 236 414 0
2021-01-06 23:21:43 GMT 38.924561 -95.426086 36,000 237 413 0
2021-01-06 23:21:39 GMT 38.929447 -95.416748 36,000 236 412 0
2021-01-06 23:21:35 GMT 38.937176 -95.402161 36,000 236 411 0
2021-01-06 23:21:32 GMT 38.937176 -95.402161 36,000 236 412 0
2021-01-06 23:21:29 GMT 38.940807 -95.395264 36,000 236 412 0
2021-01-06 23:21:25 GMT 38.945274 -95.386780 36,000 236 411 0
2021-01-06 23:21:21 GMT 38.948723 -95.380310 36,000 236 411 0
2021-01-06 23:21:18 GMT 38.951885 -95.374268 36,000 236 411 0
2021-01-06 23:21:15 GMT 38.956169 -95.366211 36,000 236 410 0
2021-01-06 23:21:12 GMT 38.957241 -95.364197 36,000 236 410 0
2021-01-06 23:21:08 GMT 38.961708 -95.355713 36,000 236 410 0
2021-01-06 23:21:05 GMT 38.966366 -95.346863 36,000 236 410 0
2021-01-06 23:21:01 GMT 38.970646 -95.338806 36,000 236 409 64
2021-01-06 23:20:58 GMT 38.973312 -95.333801 36,000 236 409 64
2021-01-06 23:20:54 GMT 38.977982 -95.324905 36,000 236 409 0
2021-01-06 23:20:50 GMT 38.981552 -95.318100 36,000 236 409 0
2021-01-06 23:20:46 GMT 38.984844 -95.311890 36,000 236 409 -64
2021-01-06 23:20:43 GMT 38.989315 -95.303467 36,000 236 408 0
2021-01-06 23:20:40 GMT 38.992584 -95.297264 36,000 236 408 0
2021-01-06 23:20:37 GMT 38.995880 -95.291016 36,000 236 407 0
2021-01-06 23:20:33 GMT 39.000069 -95.283020 36,000 236 406 64
2021-01-06 23:20:29 GMT 39.006817 -95.270203 36,000 237 404 0
2021-01-06 23:20:26 GMT 39.006817 -95.270203 36,000 236 406 0
2021-01-06 23:20:23 GMT 39.010403 -95.263428 36,000 237 406 64
2021-01-06 23:20:19 GMT 39.017757 -95.249451 36,000 236 405 64
2021-01-06 23:20:16 GMT 39.017757 -95.249451 36,000 236 405 64
2021-01-06 23:20:12 GMT 39.022476 -95.240479 36,000 237 404 0
2021-01-06 23:20:08 GMT 39.025532 -95.234680 36,000 237 404 0
2021-01-06 23:20:05 GMT 39.028564 -95.228897 36,000 237 404 0
2021-01-06 23:20:02 GMT 39.032730 -95.220955 36,000 237 404 0
2021-01-06 23:19:58 GMT 39.036301 -95.214211 36,000 236 404 0
2021-01-06 23:19:54 GMT 39.039642 -95.207817 36,000 236 404 0
2021-01-06 23:19:51 GMT 39.044083 -95.199455 36,000 236 404 0
2021-01-06 23:19:48 GMT 39.047607 -95.192711 36,000 237 404 0
2021-01-06 23:19:45 GMT 39.050537 -95.187157 36,000 237 404 0
2021-01-06 23:19:40 GMT 39.055161 -95.178383 36,000 237 404 0
2021-01-06 23:19:37 GMT 39.058273 -95.172409 36,000 237 404 0
2021-01-06 23:19:34 GMT 39.061516 -95.166199 36,000 237 404 0
2021-01-06 23:19:30 GMT 39.066833 -95.156052 36,000 237 404 0
2021-01-06 23:19:27 GMT 39.069122 -95.151695 36,000 237 404 0
2021-01-06 23:19:24 GMT 39.072281 -95.145721 36,000 237 404 0
2021-01-06 23:19:21 GMT 39.074799 -95.140945 36,000 237 404 64
2021-01-06 23:19:18 GMT 39.081894 -95.127335 36,000 237 404 64
2021-01-06 23:19:14 GMT 39.081894 -95.127335 36,000 237 404 64
2021-01-06 23:19:10 GMT 39.085648 -95.120163 36,000 237 404 0
2021-01-06 23:19:07 GMT 39.089497 -95.112793 36,000 237 404 0
2021-01-06 23:19:04 GMT 39.092846 -95.106445 36,000 237 404 -64
2021-01-06 23:19:00 GMT 39.097458 -95.097656 36,000 237 404 -64
2021-01-06 23:18:57 GMT 39.100574 -95.091675 36,000 237 404 -64
2021-01-06 23:18:54 GMT 39.107574 -95.078255 36,000 237 404 -64
2021-01-06 23:18:51 GMT 39.107574 -95.078255 36,000 237 404 0
2021-01-06 23:18:48 GMT 39.110275 -95.073059 36,000 237 404 0
2021-01-06 23:18:45 GMT 39.112679 -95.068481 36,000 237 404 -64
2021-01-06 23:18:42 GMT 39.115677 -95.062729 36,000 237 404 0
2021-01-06 23:18:38 GMT 39.123413 -95.047981 36,000 237 404 -64
2021-01-06 23:18:35 GMT 39.123413 -95.047981 36,000 237 404 0
2021-01-06 23:18:32 GMT 39.126709 -95.041588 36,000 237 404 0
2021-01-06 23:18:27 GMT 39.132462 -95.030640 36,000 236 404 0
2021-01-06 23:18:23 GMT 39.135582 -95.024658 36,000 236 404 64
2021-01-06 23:18:20 GMT 39.140305 -95.015678 36,000 237 403 0
2021-01-06 23:18:16 GMT 39.143005 -95.010483 36,000 237 403 0
2021-01-06 23:18:13 GMT 39.146240 -95.004333 36,000 237 403 -64
2021-01-06 23:18:09 GMT 39.150467 -94.996155 36,000 237 402 -64
2021-01-06 23:18:06 GMT 39.153992 -94.989403 36,000 237 402 0
2021-01-06 23:18:02 GMT 39.156921 -94.983849 36,000 237 402 -64
2021-01-06 23:17:58 GMT 39.161682 -94.974716 36,000 237 402 0
2021-01-06 23:17:54 GMT 39.166306 -94.965820 36,000 237 401 0
2021-01-06 23:17:51 GMT 39.168400 -94.961853 36,000 237 401 0
2021-01-06 23:17:48 GMT 39.172623 -94.953758 36,000 236 400 0
2021-01-06 23:17:43 GMT 39.181808 -94.936157 36,000 236 400 64
2021-01-06 23:17:40 GMT 39.181808 -94.936157 36,000 237 399 64
2021-01-06 23:17:37 GMT 39.183563 -94.932800 36,000 237 399 128
2021-01-06 23:17:34 GMT 39.186081 -94.928085 36,000 237 399 64
2021-01-06 23:17:31 GMT 39.189148 -94.922112 36,000 237 399 0
2021-01-06 23:17:27 GMT 39.194321 -94.912262 36,000 237 399 0
2021-01-06 23:17:24 GMT 39.197388 -94.906349 36,000 237 399 0
2021-01-06 23:17:20 GMT 39.200802 -94.899841 36,000 237 399 0
2021-01-06 23:17:17 GMT 39.203339 -94.894890 36,000 237 399 0
2021-01-06 23:17:14 GMT 39.207642 -94.886650 36,000 237 399 0
2021-01-06 23:17:11 GMT 39.210342 -94.881516 36,000 237 399 0
2021-01-06 23:17:06 GMT 39.215557 -94.871460 36,000 237 398 0
2021-01-06 23:17:03 GMT 39.218948 -94.864914 36,000 237 398 0
2021-01-06 23:17:00 GMT 39.221100 -94.860779 36,000 237 398 0
2021-01-06 23:16:56 GMT 39.224670 -94.853867 36,000 237 398 0
2021-01-06 23:16:53 GMT 39.229477 -94.844604 36,000 237 399 0
2021-01-06 23:16:49 GMT 39.233276 -94.837265 36,000 237 400 0
2021-01-06 23:16:45 GMT 39.237064 -94.829956 36,000 237 401 0
2021-01-06 23:16:42 GMT 39.240372 -94.823608 36,000 237 401 0
2021-01-06 23:16:39 GMT 39.242420 -94.819641 36,000 237 401 0
2021-01-06 23:16:35 GMT 39.246750 -94.811279 36,000 237 402 0
2021-01-06 23:16:31 GMT 39.251404 -94.802277 36,000 237 402 0
2021-01-06 23:16:28 GMT 39.253963 -94.797302 36,000 237 403 0
2021-01-06 23:16:25 GMT 39.257271 -94.790894 36,000 237 403 0
2021-01-06 23:16:21 GMT 39.261833 -94.782104 36,000 237 403 0
2021-01-06 23:16:18 GMT 39.264530 -94.776917 36,000 237 405 0
2021-01-06 23:16:14 GMT 39.269394 -94.767471 36,000 237 405 0
2021-01-06 23:16:10 GMT 39.272633 -94.761230 36,000 237 406 0
2021-01-06 23:16:07 GMT 39.275101 -94.756409 36,000 237 406 0
2021-01-06 23:16:04 GMT 39.279335 -94.748352 36,000 236 408 0
2021-01-06 23:16:01 GMT 39.282394 -94.742569 36,000 235 408 0
2021-01-06 23:15:58 GMT 39.285645 -94.736603 36,000 235 407 0
2021-01-06 23:15:54 GMT 39.290955 -94.727104 36,000 235 409 0
2021-01-06 23:15:51 GMT 39.293674 -94.722168 36,000 235 409 0
2021-01-06 23:15:48 GMT 39.296906 -94.716415 36,000 235 410 0
2021-01-06 23:15:43 GMT 39.302170 -94.706863 36,000 235 411 0
2021-01-06 23:15:40 GMT 39.305511 -94.700897 36,000 235 412 0
2021-01-06 23:15:36 GMT 39.308941 -94.694702 36,000 235 412 0
2021-01-06 23:15:32 GMT 39.314484 -94.684692 36,000 235 413 -64
2021-01-06 23:15:29 GMT 39.317833 -94.678711 36,000 235 414 -128
2021-01-06 23:15:26 GMT 39.320618 -94.673668 36,000 235 414 -128
2021-01-06 23:15:23 GMT 39.324188 -94.667282 36,000 235 415 -64
2021-01-06 23:15:20 GMT 39.328308 -94.659790 36,000 235 415 0
2021-01-06 23:15:16 GMT 39.331558 -94.653961 36,000 235 416 0
2021-01-06 23:15:11 GMT 39.337246 -94.643677 36,000 235 417 0
2021-01-06 23:15:08 GMT 39.341171 -94.636589 36,000 235 418 0
2021-01-06 23:15:05 GMT 39.343533 -94.632324 36,000 235 418 0
2021-01-06 23:15:02 GMT 39.348358 -94.623573 36,000 235 420 0
2021-01-06 23:14:59 GMT 39.351288 -94.618256 36,000 235 420 0
2021-01-06 23:14:56 GMT 39.355362 -94.610977 36,000 235 420 0
2021-01-06 23:14:51 GMT 39.360580 -94.601540 36,000 235 421 -64
2021-01-06 23:14:48 GMT 39.363281 -94.596642 36,000 235 421 -64
2021-01-06 23:14:45 GMT 39.366806 -94.590332 36,000 235 422 -128
2021-01-06 23:14:41 GMT 39.372253 -94.580505 36,000 235 422 -128
2021-01-06 23:14:38 GMT 39.375092 -94.575386 36,000 235 422 -64
2021-01-06 23:14:34 GMT 39.380215 -94.566101 36,025 235 422 -64
2021-01-06 23:14:28 GMT 39.386826 -94.554199 36,000 235 423 64
2021-01-06 23:14:24 GMT 39.390690 -94.547241 36,000 235 423 64
2021-01-06 23:14:21 GMT 39.395325 -94.538788 36,000 235 422 64
2021-01-06 23:14:17 GMT 39.398602 -94.532837 36,000 235 422 64
2021-01-06 23:14:13 GMT 39.402699 -94.525452 36,000 235 422 0
2021-01-06 23:14:10 GMT 39.407494 -94.516846 36,000 235 422 -64
2021-01-06 23:14:06 GMT 39.411358 -94.509888 36,000 235 422 0
2021-01-06 23:14:03 GMT 39.418617 -94.496765 36,000 235 422 0
2021-01-06 23:14:00 GMT 39.418617 -94.496765 36,000 235 421 -64
2021-01-06 23:13:57 GMT 39.422253 -94.490234 36,000 235 421 0
2021-01-06 23:13:52 GMT 39.427322 -94.481049 36,000 235 421 0
2021-01-06 23:13:49 GMT 39.430397 -94.475525 36,000 235 421 0
2021-01-06 23:13:46 GMT 39.433563 -94.469788 36,000 235 421 -64
2021-01-06 23:13:42 GMT 39.438313 -94.461182 36,000 235 420 -64
2021-01-06 23:13:36 GMT 39.445061 -94.448914 36,025 235 419 -64
2021-01-06 23:13:32 GMT 39.450165 -94.439728 36,025 235 419 0
2021-01-06 23:13:26 GMT 39.457443 -94.426453 36,000 235 418 64
2021-01-06 23:13:23 GMT 39.460796 -94.420349 36,000 235 419 128
2021-01-06 23:13:20 GMT 39.462147 -94.417908 36,000 235 419 128
2021-01-06 23:13:17 GMT 39.466782 -94.409515 35,975 235 419 128
2021-01-06 23:13:14 GMT 39.469025 -94.405457 35,975 235 420 64
2021-01-06 23:13:11 GMT 39.473969 -94.396500 36,000 235 419 -128
2021-01-06 23:13:08 GMT 39.477463 -94.390198 36,000 235 419 -128
2021-01-06 23:13:05 GMT 39.480392 -94.384888 36,000 235 418 -128
2021-01-06 23:13:00 GMT 39.485561 -94.375549 36,025 235 418 0
2021-01-06 23:12:57 GMT 39.490173 -94.367188 36,000 235 418 128
2021-01-06 23:12:54 GMT 39.492031 -94.363770 36,000 235 417 64
2021-01-06 23:12:50 GMT 39.497665 -94.353577 36,000 235 417 0
2021-01-06 23:12:45 GMT 39.502785 -94.344238 36,000 235 416 0
2021-01-06 23:12:39 GMT 39.509071 -94.332886 35,975 235 417 192
2021-01-06 23:12:34 GMT 39.515076 -94.321899 35,975 235 416 -128
2021-01-06 23:12:29 GMT 39.520798 -94.311600 36,000 235 416 -192
2021-01-06 23:12:26 GMT 39.524139 -94.305565 36,025 235 415 -256
2021-01-06 23:12:23 GMT 39.526482 -94.301270 36,025 235 414 -64
2021-01-06 23:12:18 GMT 39.532562 -94.290161 36,000 235 414 192
2021-01-06 23:12:15 GMT 39.535789 -94.284302 36,000 235 414 64
2021-01-06 23:12:12 GMT 39.538559 -94.279236 36,000 235 413 -128
2021-01-06 23:12:08 GMT 39.543869 -94.269501 36,000 235 414 0
2021-01-06 23:12:04 GMT 39.547394 -94.263054 36,000 235 410 128
2021-01-06 23:11:59 GMT 39.554489 -94.250099 36,000 235 413 0
2021-01-06 23:11:56 GMT 39.556137 -94.247108 36,000 235 413 0
2021-01-06 23:11:52 GMT 39.561081 -94.238037 36,000 235 413 64
2021-01-06 23:11:49 GMT 39.565750 -94.229553 36,000 235 413 64
2021-01-06 23:11:45 GMT 39.568817 -94.223885 36,000 235 412 64
2021-01-06 23:11:41 GMT 39.573212 -94.215820 36,000 235 412 0
2021-01-06 23:11:37 GMT 39.578156 -94.206787 36,000 235 412 0
2021-01-06 23:11:34 GMT 39.581589 -94.200539 36,000 235 411 -64
2021-01-06 23:11:28 GMT 39.588490 -94.187805 36,025 235 411 -128
2021-01-06 23:11:25 GMT 39.591019 -94.183228 36,025 235 411 -128
2021-01-06 23:11:22 GMT 39.593445 -94.178802 36,025 235 410 -64
2021-01-06 23:11:16 GMT 39.600548 -94.165710 36,025 235 411 64
2021-01-06 23:11:13 GMT 39.604797 -94.157906 36,000 235 410 64
2021-01-06 23:11:10 GMT 39.607864 -94.152298 36,000 235 410 128
2021-01-06 23:11:07 GMT 39.611717 -94.145264 36,000 235 410 128
2021-01-06 23:11:04 GMT 39.613255 -94.142456 36,000 235 410 64
2021-01-06 23:11:01 GMT 39.618164 -94.133430 36,000 235 408 -128
2021-01-06 23:10:55 GMT 39.624985 -94.121010 36,000 235 409 -64
2021-01-06 23:10:52 GMT 39.627594 -94.116234 36,000 235 409 -64
2021-01-06 23:10:45 GMT 39.634781 -94.103035 36,000 235 408 -64
2021-01-06 23:10:41 GMT 39.638718 -94.095810 36,000 235 406 0
2021-01-06 23:10:35 GMT 39.646500 -94.081482 36,000 235 406 0
2021-01-06 23:10:32 GMT 39.648773 -94.077271 36,000 235 406 0
2021-01-06 23:10:28 GMT 39.653000 -94.069542 36,000 235 406 0
2021-01-06 23:10:25 GMT 39.656937 -94.062370 36,000 235 406 -64
2021-01-06 23:10:21 GMT 39.661652 -94.053658 36,025 235 405 -64
2021-01-06 23:10:17 GMT 39.665020 -94.047485 36,025 235 405 0
2021-01-06 23:10:14 GMT 39.669434 -94.039330 36,025 235 404 0
2021-01-06 23:10:10 GMT 39.672516 -94.033569 36,025 235 404 64
2021-01-06 23:10:04 GMT 39.683968 -94.012634 36,000 235 403 0
2021-01-06 23:10:00 GMT 39.683968 -94.012634 36,000 235 403 0
2021-01-06 23:09:54 GMT 39.689850 -94.001770 36,000 235 403 128
2021-01-06 23:09:51 GMT 39.693100 -93.995857 36,000 235 403 128
2021-01-06 23:09:48 GMT 39.695435 -93.991501 35,975 235 401 64
2021-01-06 23:09:43 GMT 39.701984 -93.979492 35,975 235 402 128
2021-01-06 23:09:39 GMT 39.706146 -93.971794 35,975 235 401 -64
2021-01-06 23:09:35 GMT 39.711014 -93.962952 36,000 235 400 -128
2021-01-06 23:09:31 GMT 39.715298 -93.955139 36,000 235 401 -192
2021-01-06 23:09:28 GMT 39.717625 -93.950806 36,025 235 400 64
2021-01-06 23:09:24 GMT 39.722141 -93.942566 36,025 235 399 0
2021-01-06 23:09:20 GMT 39.726288 -93.934898 36,025 235 400 64
2021-01-06 23:09:16 GMT 39.730728 -93.926659 36,000 236 400 128
2021-01-06 23:09:11 GMT 39.735733 -93.917419 36,000 236 400 128
2021-01-06 23:09:08 GMT 39.739552 -93.910339 36,000 235 400 0
2021-01-06 23:09:03 GMT 39.745377 -93.899551 36,000 235 400 -64
2021-01-06 23:09:00 GMT 39.746952 -93.896606 36,000 235 400 -64
2021-01-06 23:08:57 GMT 39.750687 -93.889755 36,000 236 400 0
2021-01-06 23:08:52 GMT 39.755238 -93.881287 36,000 235 399 128
2021-01-06 23:08:49 GMT 39.759941 -93.872681 36,000 235 400 0
2021-01-06 23:08:41 GMT 39.767258 -93.859123 36,000 235 399 0
2021-01-06 23:08:38 GMT 39.770874 -93.852440 36,000 235 399 -128
2021-01-06 23:08:35 GMT 39.773300 -93.847961 36,000 236 400 -64
2021-01-06 23:08:32 GMT 39.776932 -93.841248 36,000 236 400 -64
2021-01-06 23:08:29 GMT 39.781170 -93.833435 36,000 236 400 64
2021-01-06 23:08:25 GMT 39.784012 -93.828079 36,000 235 399 0
2021-01-06 23:08:22 GMT 39.787857 -93.821030 36,000 235 399 0
2021-01-06 23:08:18 GMT 39.791363 -93.814575 36,000 235 399 64
2021-01-06 23:08:15 GMT 39.799072 -93.800255 36,000 235 399 -64
2021-01-06 23:08:12 GMT 39.799072 -93.800255 36,000 236 400 0
2021-01-06 23:08:07 GMT 39.804382 -93.790405 36,000 235 399 0
2021-01-06 23:08:04 GMT 39.806305 -93.786880 36,000 235 399 -128
2021-01-06 23:08:01 GMT 39.810219 -93.779602 36,000 235 399 -128
2021-01-06 23:07:58 GMT 39.813381 -93.773743 36,000 235 399 0
2021-01-06 23:07:55 GMT 39.817291 -93.766457 36,000 236 399 0
2021-01-06 23:07:52 GMT 39.819527 -93.762329 36,000 236 399 0
2021-01-06 23:07:48 GMT 39.824600 -93.752930 36,000 235 399 0
2021-01-06 23:07:44 GMT 39.828094 -93.746460 36,000 235 399 0
2021-01-06 23:07:41 GMT 39.831894 -93.739349 36,000 236 400 0
2021-01-06 23:07:35 GMT 39.837158 -93.729561 36,000 235 399 0
2021-01-06 23:07:32 GMT 39.840012 -93.724243 36,000 235 399 0
2021-01-06 23:07:27 GMT 39.847137 -93.711113 36,000 235 399 0
2021-01-06 23:07:24 GMT 39.848373 -93.708725 36,000 236 398 64
2021-01-06 23:07:19 GMT 39.854023 -93.698303 36,000 235 399 64
2021-01-06 23:07:16 GMT 39.857792 -93.691223 36,000 236 398 64
2021-01-06 23:07:13 GMT 39.861797 -93.683777 36,000 236 398 64
2021-01-06 23:07:10 GMT 39.864670 -93.678513 36,000 235 399 0
2021-01-06 23:07:05 GMT 39.872177 -93.664551 36,000 235 399 -64
2021-01-06 23:07:02 GMT 39.872177 -93.664551 36,000 236 398 0
2021-01-06 23:06:58 GMT 39.875885 -93.657669 36,000 235 399 -64
2021-01-06 23:06:54 GMT 39.881790 -93.646683 36,000 236 398 0
2021-01-06 23:06:51 GMT 39.883583 -93.643311 36,000 235 399 0
2021-01-06 23:06:48 GMT 39.886749 -93.637451 36,000 235 399 0
2021-01-06 23:06:45 GMT 39.891083 -93.629372 36,000 236 398 -64
2021-01-06 23:06:41 GMT 39.894882 -93.622322 36,000 236 398 0
2021-01-06 23:06:37 GMT 39.898270 -93.616051 36,000 236 398 0
2021-01-06 23:06:32 GMT 39.904018 -93.605225 36,000 236 398 0
2021-01-06 23:06:28 GMT 39.908443 -93.596985 36,000 236 398 0
2021-01-06 23:06:24 GMT 39.913330 -93.587952 36,000 236 398 0
2021-01-06 23:06:21 GMT 39.914886 -93.585007 36,000 236 398 0
2021-01-06 23:06:18 GMT 39.919430 -93.576599 36,000 236 398 0
2021-01-06 23:06:12 GMT 39.925873 -93.564575 36,000 236 398 0
2021-01-06 23:06:06 GMT 39.931252 -93.554581 36,000 236 397 0
2021-01-06 23:06:03 GMT 39.935349 -93.546936 36,000 236 398 -64
2021-01-06 23:06:00 GMT 39.937454 -93.543030 36,000 236 398 0
2021-01-06 23:05:57 GMT 39.941170 -93.536163 36,000 236 397 0
2021-01-06 23:05:51 GMT 39.947872 -93.523552 36,000 236 398 0
2021-01-06 23:05:47 GMT 39.952106 -93.515747 36,000 236 398 0
2021-01-06 23:05:42 GMT 39.957134 -93.506325 36,000 236 398 0
2021-01-06 23:05:39 GMT 39.959335 -93.502197 36,000 236 397 64
2021-01-06 23:05:36 GMT 39.963135 -93.495117 36,000 236 398 0
2021-01-06 23:05:33 GMT 39.965836 -93.489990 36,000 236 397 0
2021-01-06 23:05:30 GMT 39.970123 -93.481918 36,000 236 397 64
2021-01-06 23:05:25 GMT 39.975384 -93.472115 36,000 236 398 64
2021-01-06 23:05:21 GMT 39.979992 -93.463440 36,000 236 398 0
2021-01-06 23:05:18 GMT 39.985336 -93.453430 36,000 236 398 -64
2021-01-06 23:05:15 GMT 39.985336 -93.453430 36,025 236 398 -64
2021-01-06 23:05:12 GMT 39.987854 -93.448669 36,025 236 398 64
2021-01-06 23:05:08 GMT 39.993530 -93.438049 36,000 236 398 0
2021-01-06 23:05:03 GMT 39.998241 -93.429169 36,000 236 398 64
2021-01-06 23:05:00 GMT 40.001495 -93.423096 36,000 236 398 64
2021-01-06 23:04:57 GMT 40.004059 -93.418396 36,000 236 398 64
2021-01-06 23:04:51 GMT 40.010147 -93.406921 36,000 236 399 0
2021-01-06 23:04:48 GMT 40.013947 -93.399841 36,000 236 398 0
2021-01-06 23:04:44 GMT 40.017422 -93.393341 36,000 236 398 -64
2021-01-06 23:04:41 GMT 40.020584 -93.387474 36,000 236 398 -64
2021-01-06 23:04:36 GMT 40.025711 -93.377808 36,000 236 398 0
2021-01-06 23:04:33 GMT 40.028458 -93.372681 36,000 236 398 64
2021-01-06 23:04:27 GMT 40.036137 -93.358322 36,000 236 398 0
2021-01-06 23:04:24 GMT 40.039169 -93.352600 36,000 236 398 0
2021-01-06 23:04:19 GMT 40.043152 -93.345093 36,000 236 398 0
2021-01-06 23:04:16 GMT 40.046841 -93.338219 36,000 236 398 0
2021-01-06 23:04:12 GMT 40.050846 -93.330727 36,000 236 398 0
2021-01-06 23:04:06 GMT 40.057968 -93.317375 36,000 236 398 -64
2021-01-06 23:03:59 GMT 40.064671 -93.304764 36,000 236 398 -64
2021-01-06 23:03:55 GMT 40.068970 -93.296692 36,000 236 397 -64
2021-01-06 23:03:49 GMT 40.075470 -93.284485 36,000 236 397 64
2021-01-06 23:03:45 GMT 40.080276 -93.275391 36,000 236 397 0
2021-01-06 23:03:38 GMT 40.086876 -93.263000 36,000 236 398 64
2021-01-06 23:03:33 GMT 40.091297 -93.254700 36,000 236 398 -64
2021-01-06 23:03:28 GMT 40.097488 -93.243103 36,000 236 397 -128
2021-01-06 23:03:23 GMT 40.102066 -93.234436 36,000 236 398 -64
2021-01-06 23:03:19 GMT 40.107174 -93.224739 36,000 236 398 0
2021-01-06 23:03:13 GMT 40.112804 -93.214127 36,000 236 397 0
2021-01-06 23:03:07 GMT 40.119091 -93.202263 36,000 236 398 128
2021-01-06 23:03:04 GMT 40.122211 -93.196335 36,000 236 398 0
2021-01-06 23:03:00 GMT 40.125980 -93.189217 36,000 236 398 0
2021-01-06 23:02:56 GMT 40.130035 -93.181519 36,000 236 398 0
2021-01-06 23:02:52 GMT 40.134964 -93.172241 36,000 236 398 0
2021-01-06 23:02:49 GMT 40.138737 -93.165123 36,000 236 398 -64
2021-01-06 23:02:46 GMT 40.140785 -93.161133 36,000 236 398 -64
2021-01-06 23:02:42 GMT 40.145920 -93.151428 36,025 236 398 0
2021-01-06 23:02:35 GMT 40.152096 -93.139778 36,025 236 398 -128
2021-01-06 23:02:30 GMT 40.158279 -93.128113 36,025 236 397 0
2021-01-06 23:02:25 GMT 40.162945 -93.119240 36,000 236 398 64
2021-01-06 23:02:22 GMT 40.166107 -93.113251 36,000 236 398 128
2021-01-06 23:02:17 GMT 40.171741 -93.102577 36,000 236 398 0
2021-01-06 23:02:14 GMT 40.173935 -93.098450 36,000 236 398 0
2021-01-06 23:02:10 GMT 40.179890 -93.087158 36,000 236 398 0
2021-01-06 23:02:03 GMT 40.185333 -93.076859 36,000 236 398 64
2021-01-06 23:01:59 GMT 40.190643 -93.066772 36,000 236 398 -64
2021-01-06 23:01:53 GMT 40.195862 -93.056885 36,000 236 398 64
2021-01-06 23:01:50 GMT 40.200439 -93.048157 36,000 236 398 0
2021-01-06 23:01:43 GMT 40.206188 -93.037285 36,000 236 398 0
2021-01-06 23:01:38 GMT 40.212055 -93.026169 36,000 236 398 0
2021-01-06 23:01:33 GMT 40.217503 -93.015869 36,000 236 398 -64
2021-01-06 23:01:29 GMT 40.222485 -93.006386 36,000 236 397 0
2021-01-06 23:01:25 GMT 40.226673 -92.998459 36,000 236 397 64
2021-01-06 23:01:21 GMT 40.229874 -92.992310 36,000 236 397 64
2021-01-06 23:01:18 GMT 40.233097 -92.986160 36,000 236 397 0
2021-01-06 23:01:11 GMT 40.239899 -92.973267 36,000 236 397 -64
2021-01-06 23:01:08 GMT 40.244549 -92.964371 36,000 236 397 0
2021-01-06 23:01:05 GMT 40.246876 -92.960007 36,000 236 397 0
2021-01-06 23:01:02 GMT 40.249763 -92.954445 36,000 236 398 -64
2021-01-06 23:00:58 GMT 40.254456 -92.945557 36,000 236 397 0
2021-01-06 23:00:54 GMT 40.257980 -92.938782 36,000 236 398 64
2021-01-06 23:00:50 GMT 40.261822 -92.931480 36,000 236 397 0
2021-01-06 23:00:47 GMT 40.266083 -92.923340 36,000 236 398 64
2021-01-06 23:00:41 GMT 40.271255 -92.913391 36,000 236 398 64
2021-01-06 23:00:38 GMT 40.275505 -92.905258 36,000 236 398 0
2021-01-06 23:00:35 GMT 40.276997 -92.902512 36,000 236 398 0
2021-01-06 23:00:29 GMT 40.283295 -92.890381 36,000 236 398 0
2021-01-06 23:00:26 GMT 40.287563 -92.882225 36,000 236 398 0
2021-01-06 23:00:19 GMT 40.294510 -92.868896 36,000 236 398 0
2021-01-06 23:00:14 GMT 40.299500 -92.859375 36,000 236 398 0
2021-01-06 23:00:10 GMT 40.304554 -92.849640 36,000 236 397 0
2021-01-06 23:00:07 GMT 40.306648 -92.845650 36,000 236 398 -64
2021-01-06 23:00:03 GMT 40.312004 -92.835350 36,000 236 397 0
2021-01-06 23:00:00 GMT 40.313782 -92.831970 36,000 236 397 0
2021-01-06 22:59:57 GMT 40.316849 -92.825989 36,000 236 398 0
2021-01-06 22:59:54 GMT 40.320057 -92.819801 36,000 236 398 0
2021-01-06 22:59:44 GMT 40.331230 -92.798332 36,000 236 397 0
2021-01-06 22:59:36 GMT 40.338776 -92.783813 36,000 237 397 0
2021-01-06 22:59:33 GMT 40.341843 -92.777832 36,000 237 397 0
2021-01-06 22:59:22 GMT 40.352142 -92.756165 36,000 246 398 0
2021-01-06 22:59:12 GMT 40.360703 -92.733765 36,000 247 398 0
2021-01-06 22:59:05 GMT 40.365601 -92.718140 36,000 250 399 0
2021-01-06 22:59:01 GMT 40.368256 -92.708618 36,000 252 399 0
2021-01-06 22:58:55 GMT 40.371552 -92.695190 36,000 255 401 0
2021-01-06 22:58:51 GMT 40.373501 -92.686096 36,000 256 402 0
2021-01-06 22:58:45 GMT 40.376221 -92.671204 36,000 266 405 0
2021-01-06 22:58:42 GMT 40.377270 -92.664307 36,000 260 403 0
2021-01-06 22:58:39 GMT 40.378387 -92.656136 36,000 262 403 -64
2021-01-06 22:58:34 GMT 40.379517 -92.645752 36,000 264 404 -64
2021-01-06 22:58:30 GMT 40.380436 -92.635284 36,000 265 404 0
2021-01-06 22:58:24 GMT 40.381348 -92.621399 36,000 266 405 0
2021-01-06 22:58:19 GMT 40.382111 -92.609444 36,000 266 405 0
2021-01-06 22:58:10 GMT 40.383648 -92.585472 36,000 266 405 0
2021-01-06 22:58:07 GMT 40.384094 -92.578918 36,000 266 405 0
2021-01-06 22:57:58 GMT 40.385464 -92.556694 36,000 266 405 0
2021-01-06 22:57:55 GMT 40.386108 -92.547119 36,000 266 405 0
2021-01-06 22:57:49 GMT 40.387024 -92.532959 36,000 266 405 -64
2021-01-06 22:57:42 GMT 40.387932 -92.518555 36,000 266 405 0
2021-01-06 22:57:38 GMT 40.388580 -92.507820 36,000 266 405 0
2021-01-06 22:57:33 GMT 40.389313 -92.496765 36,000 266 405 -64
2021-01-06 22:57:26 GMT 40.390537 -92.476982 36,000 266 405 0
2021-01-06 22:57:20 GMT 40.391327 -92.464050 36,000 266 405 0
2021-01-06 22:57:17 GMT 40.391888 -92.455009 36,000 266 405 0
2021-01-06 22:57:11 GMT 40.392632 -92.443275 36,000 266 405 64
2021-01-06 22:57:05 GMT 40.393703 -92.425667 36,000 266 405 0
2021-01-06 22:57:01 GMT 40.394169 -92.418304 36,000 266 405 -64
2021-01-06 22:56:56 GMT 40.395100 -92.403633 36,000 266 405 -64
2021-01-06 22:56:53 GMT 40.395538 -92.396057 36,000 266 405 -64
2021-01-06 22:56:49 GMT 40.396225 -92.385315 36,000 266 405 -64
2021-01-06 22:56:46 GMT 40.396591 -92.378967 36,000 266 405 0
2021-01-06 22:56:43 GMT 40.396961 -92.372864 36,000 266 405 0
2021-01-06 22:56:38 GMT 40.397800 -92.359192 36,000 266 405 0
2021-01-06 22:56:35 GMT 40.398216 -92.352325 36,000 266 405 0
2021-01-06 22:56:30 GMT 40.398823 -92.342087 36,000 266 405 -64
2021-01-06 22:56:24 GMT 40.399750 -92.327148 36,000 266 405 64
2021-01-06 22:56:21 GMT 40.400219 -92.319611 36,000 266 405 0
2021-01-06 22:56:17 GMT 40.400871 -92.308876 36,000 266 405 0
2021-01-06 22:56:14 GMT 40.401382 -92.300575 36,000 266 405 -64
2021-01-06 22:56:11 GMT 40.401848 -92.292770 36,000 266 405 -64
2021-01-06 22:56:05 GMT 40.402550 -92.281532 36,000 266 404 -64
2021-01-06 22:56:02 GMT 40.403198 -92.270798 36,000 266 404 0
2021-01-06 22:55:59 GMT 40.403431 -92.266869 36,000 266 404 0
2021-01-06 22:55:56 GMT 40.404007 -92.256897 36,000 266 404 128
2021-01-06 22:55:51 GMT 40.404694 -92.246155 36,000 266 404 64
2021-01-06 22:55:48 GMT 40.405434 -92.233719 36,000 266 404 64
2021-01-06 22:55:45 GMT 40.405434 -92.233719 36,000 266 404 0
2021-01-06 22:55:41 GMT 40.406223 -92.220551 36,000 266 404 64
2021-01-06 22:55:38 GMT 40.406738 -92.212746 36,000 266 404 0
2021-01-06 22:55:33 GMT 40.407303 -92.203186 36,000 266 404 -64
2021-01-06 22:55:30 GMT 40.407761 -92.195641 36,000 266 404 -64
2021-01-06 22:55:27 GMT 40.408218 -92.188110 36,000 266 403 0
2021-01-06 22:55:24 GMT 40.408691 -92.180534 36,000 266 403 0
2021-01-06 22:55:20 GMT 40.409206 -92.171799 36,000 266 403 -64
2021-01-06 22:55:16 GMT 40.409763 -92.162994 36,000 266 403 0
2021-01-06 22:55:11 GMT 40.410694 -92.146950 36,000 266 403 0
2021-01-06 22:55:07 GMT 40.411301 -92.137718 36,000 266 403 -64
2021-01-06 22:55:03 GMT 40.411766 -92.129410 36,000 266 403 -64
2021-01-06 22:55:00 GMT 40.412045 -92.124603 36,000 266 403 64
2021-01-06 22:54:57 GMT 40.412613 -92.115112 36,000 266 403 64
2021-01-06 22:54:53 GMT 40.413254 -92.104370 36,000 266 403 0
2021-01-06 22:54:50 GMT 40.413582 -92.098824 36,000 266 403 -64
2021-01-06 22:54:46 GMT 40.414185 -92.088585 36,000 266 403 0
2021-01-06 22:54:42 GMT 40.414902 -92.076233 36,000 266 402 64
2021-01-06 22:54:39 GMT 40.415115 -92.072548 36,000 266 402 64
2021-01-06 22:54:35 GMT 40.415813 -92.060936 36,000 266 402 0
2021-01-06 22:54:29 GMT 40.416687 -92.047058 36,000 266 402 64
2021-01-06 22:54:26 GMT 40.417465 -92.033508 36,000 266 402 0
2021-01-06 22:54:23 GMT 40.417465 -92.033508 36,000 266 402 64
2021-01-06 22:54:18 GMT 40.418144 -92.022606 36,000 266 402 0
2021-01-06 22:54:15 GMT 40.418839 -92.011169 36,000 266 402 0
2021-01-06 22:54:10 GMT 40.419540 -91.999321 36,000 266 402 64
2021-01-06 22:54:06 GMT 40.419983 -91.991333 36,000 266 402 0
2021-01-06 22:54:03 GMT 40.420532 -91.982605 36,000 266 402 0
2021-01-06 22:53:59 GMT 40.421028 -91.974106 36,000 266 402 0
2021-01-06 22:53:54 GMT 40.421768 -91.961731 36,000 266 402 0
2021-01-06 22:53:47 GMT 40.422798 -91.944084 36,000 266 402 0
2021-01-06 22:53:44 GMT 40.423233 -91.937012 36,000 266 402 0
2021-01-06 22:53:36 GMT 40.424332 -91.918579 36,025 266 401 -64
2021-01-06 22:53:33 GMT 40.424698 -91.911804 36,000 266 401 0
2021-01-06 22:53:26 GMT 40.426208 -91.886169 36,000 266 401 0
2021-01-06 22:53:22 GMT 40.426208 -91.886169 36,000 266 401 64
2021-01-06 22:53:17 GMT 40.427078 -91.871338 36,000 266 401 0
2021-01-06 22:53:13 GMT 40.427628 -91.861938 36,000 266 401 0
2021-01-06 22:53:06 GMT 40.428635 -91.845459 36,000 266 401 0
2021-01-06 22:53:03 GMT 40.429001 -91.839172 36,000 266 401 0
2021-01-06 22:53:00 GMT 40.429459 -91.831421 36,000 266 401 0
2021-01-06 22:52:54 GMT 40.430618 -91.811310 36,000 266 401 -64
2021-01-06 22:52:51 GMT 40.430618 -91.811310 36,000 266 401 0
2021-01-06 22:52:48 GMT 40.431061 -91.804260 36,000 266 401 0
2021-01-06 22:52:43 GMT 40.431976 -91.787781 36,000 266 401 64
2021-01-06 22:52:40 GMT 40.432201 -91.784157 36,000 266 401 64
2021-01-06 22:52:36 GMT 40.433395 -91.764099 36,000 266 401 0
2021-01-06 22:52:33 GMT 40.433395 -91.764099 36,000 266 401 0
2021-01-06 22:52:29 GMT 40.433853 -91.755859 36,000 266 401 64
2021-01-06 22:52:21 GMT 40.435043 -91.735474 36,000 266 401 0
2021-01-06 22:52:18 GMT 40.435272 -91.731628 36,000 266 402 0
2021-01-06 22:52:12 GMT 40.436279 -91.714172 36,000 266 402 -128
2021-01-06 22:52:09 GMT 40.436691 -91.706909 36,000 266 402 -128
2021-01-06 22:52:02 GMT 40.437740 -91.688713 36,000 266 401 0
2021-01-06 22:51:59 GMT 40.438110 -91.682190 36,000 266 401 0
2021-01-06 22:51:56 GMT 40.438385 -91.677795 36,000 266 401 0
2021-01-06 22:51:53 GMT 40.438980 -91.667114 36,000 266 402 64
2021-01-06 22:51:50 GMT 40.439255 -91.662292 36,000 266 402 0
2021-01-06 22:51:47 GMT 40.439602 -91.656250 36,000 266 402 0
2021-01-06 22:51:41 GMT 40.440674 -91.638000 36,000 266 402 64
2021-01-06 22:51:38 GMT 40.441086 -91.630249 36,000 266 402 0
2021-01-06 22:51:30 GMT 40.442070 -91.612991 36,000 266 402 0
2021-01-06 22:51:27 GMT 40.442459 -91.605957 36,000 266 403 0
2021-01-06 22:51:19 GMT 40.443516 -91.586777 36,000 266 403 0
2021-01-06 22:51:16 GMT 40.443886 -91.580467 36,000 267 402 0
2021-01-06 22:51:09 GMT 40.444977 -91.560242 36,000 267 402 0
2021-01-06 22:51:06 GMT 40.445251 -91.555420 36,000 267 402 0
2021-01-06 22:51:01 GMT 40.446026 -91.540520 36,000 267 402 -64
2021-01-06 22:50:58 GMT 40.446350 -91.534485 36,000 266 403 -64
2021-01-06 22:50:55 GMT 40.446632 -91.529846 36,000 266 403 -64
2021-01-06 22:50:49 GMT 40.447472 -91.513802 36,000 266 403 64
2021-01-06 22:50:46 GMT 40.447998 -91.504761 36,000 266 404 64
2021-01-06 22:50:38 GMT 40.448868 -91.487961 36,000 266 404 0
2021-01-06 22:50:35 GMT 40.449371 -91.479370 36,000 266 404 -64
2021-01-06 22:50:32 GMT 40.449646 -91.473999 36,000 267 404 -64
2021-01-06 22:50:27 GMT 40.450497 -91.458122 36,000 267 404 -64
2021-01-06 22:50:24 GMT 40.450745 -91.453003 36,000 267 404 -64
2021-01-06 22:50:18 GMT 40.451660 -91.436401 36,000 266 405 64
2021-01-06 22:50:15 GMT 40.452034 -91.429283 36,000 267 404 0
2021-01-06 22:50:10 GMT 40.453289 -91.406311 36,000 267 405 -128
2021-01-06 22:50:05 GMT 40.453674 -91.398682 36,000 267 405 -64
2021-01-06 22:49:57 GMT 40.454407 -91.384712 36,000 267 405 128
2021-01-06 22:49:54 GMT 40.454727 -91.378601 36,000 267 405 64
2021-01-06 22:49:48 GMT 40.455368 -91.366333 36,000 267 406 0
2021-01-06 22:49:44 GMT 40.456127 -91.352379 36,000 267 406 0
2021-01-06 22:49:39 GMT 40.456688 -91.341515 36,000 267 406 64
2021-01-06 22:49:34 GMT 40.457340 -91.329720 36,000 266 408 0
2021-01-06 22:49:31 GMT 40.457703 -91.322144 36,000 267 407 0
2021-01-06 22:49:26 GMT 40.458481 -91.307861 36,000 267 407 0
2021-01-06 22:49:23 GMT 40.458847 -91.301208 36,000 267 407 64
2021-01-06 22:49:18 GMT 40.459435 -91.290329 36,000 267 408 0
2021-01-06 22:49:15 GMT 40.459900 -91.281471 36,000 267 408 0
2021-01-06 22:49:12 GMT 40.460178 -91.276039 36,000 267 408 0
2021-01-06 22:49:07 GMT 40.460724 -91.265442 36,000 267 408 0
2021-01-06 22:49:04 GMT 40.461716 -91.245888 36,000 267 408 -128
2021-01-06 22:49:01 GMT 40.461716 -91.245888 36,000 267 408 -128
2021-01-06 22:48:58 GMT 40.462051 -91.239746 36,000 267 408 -64
2021-01-06 22:48:54 GMT 40.462505 -91.231094 36,000 267 408 0
2021-01-06 22:48:50 GMT 40.462921 -91.222900 36,000 267 408 64
2021-01-06 22:48:46 GMT 40.463486 -91.212807 36,000 267 408 0
2021-01-06 22:48:42 GMT 40.464088 -91.200447 36,000 267 408 0
2021-01-06 22:48:34 GMT 40.465019 -91.182152 36,000 267 407 0
2021-01-06 22:48:30 GMT 40.465534 -91.172295 36,000 267 407 0
2021-01-06 22:48:24 GMT 40.466324 -91.157494 36,000 267 407 0
2021-01-06 22:48:21 GMT 40.466789 -91.148132 36,000 267 407 -64
2021-01-06 22:48:17 GMT 40.467270 -91.139038 36,000 267 407 -64
2021-01-06 22:48:13 GMT 40.467865 -91.127686 36,000 267 406 -64
2021-01-06 22:48:09 GMT 40.468185 -91.121338 36,000 267 406 0
2021-01-06 22:48:06 GMT 40.468552 -91.114441 36,000 267 406 0
2021-01-06 22:48:03 GMT 40.469009 -91.105591 36,000 267 405 0
2021-01-06 22:47:59 GMT 40.469559 -91.094788 36,000 267 405 0
2021-01-06 22:47:56 GMT 40.469864 -91.088646 36,000 267 405 0
2021-01-06 22:47:52 GMT 40.470375 -91.078346 36,000 267 405 0
2021-01-06 22:47:49 GMT 40.470840 -91.068787 36,000 267 404 0
2021-01-06 22:47:46 GMT 40.471115 -91.063904 36,000 267 404 0
2021-01-06 22:47:42 GMT 40.471630 -91.053375 36,000 267 404 0
2021-01-06 22:47:38 GMT 40.472076 -91.044800 36,000 267 404 0
2021-01-06 22:47:35 GMT 40.472424 -91.038208 36,000 267 404 0
2021-01-06 22:47:32 GMT 40.473404 -91.018921 36,000 267 403 0
2021-01-06 22:47:28 GMT 40.473404 -91.018921 36,000 267 403 0
2021-01-06 22:47:25 GMT 40.473633 -91.014297 36,000 267 403 0
2021-01-06 22:47:21 GMT 40.474098 -91.004997 36,000 267 403 0
2021-01-06 22:47:18 GMT 40.474655 -90.994263 36,000 267 402 -64
2021-01-06 22:47:15 GMT 40.474915 -90.989136 36,000 267 402 0
2021-01-06 22:47:11 GMT 40.475540 -90.976723 36,000 267 402 0
2021-01-06 22:47:05 GMT 40.476196 -90.963867 36,000 267 401 0
2021-01-06 22:47:01 GMT 40.476658 -90.954376 36,000 267 401 0
2021-01-06 22:46:57 GMT 40.477203 -90.943420 36,000 267 401 64
2021-01-06 22:46:54 GMT 40.477451 -90.938835 36,000 267 400 64
2021-01-06 22:46:48 GMT 40.478256 -90.923096 36,000 267 400 0
2021-01-06 22:46:45 GMT 40.478714 -90.914368 36,000 267 400 0
2021-01-06 22:46:40 GMT 40.479218 -90.904434 36,000 267 399 -64
2021-01-06 22:46:37 GMT 40.479637 -90.895760 36,000 267 399 0
2021-01-06 22:46:34 GMT 40.479965 -90.889458 36,000 267 399 0
2021-01-06 22:46:31 GMT 40.480316 -90.882935 36,000 267 399 0
2021-01-06 22:46:28 GMT 40.480637 -90.875671 36,000 267 398 0
2021-01-06 22:46:25 GMT 40.481220 -90.864799 36,000 267 398 0
2021-01-06 22:46:21 GMT 40.481552 -90.857361 36,000 267 398 -64
2021-01-06 22:46:18 GMT 40.481918 -90.850380 36,025 267 397 -64
2021-01-06 22:46:15 GMT 40.482330 -90.841919 36,025 267 396 0
2021-01-06 22:46:12 GMT 40.482712 -90.834526 36,025 267 397 -64
2021-01-06 22:46:08 GMT 40.483082 -90.826843 36,025 267 396 0
2021-01-06 22:46:04 GMT 40.483658 -90.815552 36,025 267 396 0
2021-01-06 22:46:01 GMT 40.483932 -90.809326 36,000 267 396 64
2021-01-06 22:45:56 GMT 40.484528 -90.796631 36,000 267 395 128
2021-01-06 22:45:53 GMT 40.484848 -90.790649 36,000 267 395 128
2021-01-06 22:45:50 GMT 40.485306 -90.781067 36,000 267 395 0
2021-01-06 22:45:47 GMT 40.485641 -90.774597 36,000 267 395 64
2021-01-06 22:45:43 GMT 40.486389 -90.758865 36,000 267 394 64
2021-01-06 22:45:40 GMT 40.486946 -90.747879 36,000 267 393 -64
2021-01-06 22:45:36 GMT 40.486946 -90.747879 36,000 267 393 -64
2021-01-06 22:45:32 GMT 40.487320 -90.740723 36,000 267 393 -64
2021-01-06 22:45:29 GMT 40.487640 -90.734314 36,000 267 392 0
2021-01-06 22:45:26 GMT 40.488064 -90.725533 36,000 267 392 0
2021-01-06 22:45:23 GMT 40.488438 -90.717422 36,000 267 392 0
2021-01-06 22:45:20 GMT 40.488762 -90.710304 36,000 267 391 64
2021-01-06 22:45:17 GMT 40.489086 -90.703186 36,000 267 391 0
2021-01-06 22:45:14 GMT 40.489414 -90.697067 36,000 267 391 64
2021-01-06 22:45:11 GMT 40.489792 -90.689209 36,000 267 391 64
2021-01-06 22:45:08 GMT 40.490067 -90.683777 36,000 267 390 0
2021-01-06 22:45:05 GMT 40.490433 -90.675537 36,000 267 390 0
2021-01-06 22:45:02 GMT 40.490856 -90.667297 36,000 267 389 64
2021-01-06 22:44:59 GMT 40.491165 -90.660400 36,000 267 389 64
2021-01-06 22:44:56 GMT 40.491486 -90.654297 36,000 267 389 64
2021-01-06 22:44:52 GMT 40.491898 -90.645386 36,000 267 388 64
2021-01-06 22:44:49 GMT 40.492207 -90.639015 36,000 267 388 64
2021-01-06 22:44:45 GMT 40.492718 -90.627716 36,000 267 388 0
2021-01-06 22:44:41 GMT 40.493225 -90.617615 36,000 267 388 0
2021-01-06 22:44:38 GMT 40.493511 -90.611740 36,000 267 388 0
2021-01-06 22:44:35 GMT 40.493820 -90.604919 36,000 267 388 0
2021-01-06 22:44:32 GMT 40.494095 -90.599243 36,000 267 389 0
2021-01-06 22:44:29 GMT 40.494507 -90.589844 36,000 267 389 0
2021-01-06 22:44:25 GMT 40.494827 -90.583740 36,000 267 389 0
2021-01-06 22:44:21 GMT 40.495327 -90.572601 36,000 267 390 0
2021-01-06 22:44:18 GMT 40.495701 -90.565048 36,000 267 391 0
2021-01-06 22:44:15 GMT 40.495979 -90.558929 36,000 267 391 0
2021-01-06 22:44:11 GMT 40.496475 -90.548767 36,000 267 392 0
2021-01-06 22:44:08 GMT 40.496841 -90.540710 36,000 267 392 0
2021-01-06 22:44:05 GMT 40.497116 -90.534546 36,000 267 392 0
2021-01-06 22:43:59 GMT 40.497849 -90.518372 36,000 267 393 -64
2021-01-06 22:43:56 GMT 40.498169 -90.511230 36,000 267 393 -64
2021-01-06 22:43:53 GMT 40.498352 -90.507446 36,000 267 394 0
2021-01-06 22:43:50 GMT 40.498817 -90.497192 36,000 267 394 0
2021-01-06 22:43:47 GMT 40.499084 -90.490723 36,000 267 394 0
2021-01-06 22:43:44 GMT 40.499496 -90.482117 36,000 267 394 0
2021-01-06 22:43:39 GMT 40.500027 -90.470413 36,000 267 395 0
2021-01-06 22:43:36 GMT 40.500229 -90.465393 36,000 267 396 64
2021-01-06 22:43:33 GMT 40.500549 -90.458679 36,000 267 396 0
2021-01-06 22:43:29 GMT 40.501053 -90.447144 36,000 267 397 0
2021-01-06 22:43:26 GMT 40.501328 -90.441406 36,000 267 397 0
2021-01-06 22:43:23 GMT 40.501556 -90.436096 36,000 267 398 0
2021-01-06 22:43:20 GMT 40.502014 -90.425537 36,000 267 398 0
2021-01-06 22:43:16 GMT 40.502682 -90.410805 36,000 267 399 -64
2021-01-06 22:43:13 GMT 40.502682 -90.410805 36,000 267 399 -64
2021-01-06 22:43:09 GMT 40.503101 -90.400627 36,000 267 400 0
2021-01-06 22:43:06 GMT 40.503471 -90.392387 36,000 267 400 0
2021-01-06 22:43:03 GMT 40.503754 -90.385864 36,000 267 400 0
2021-01-06 22:42:59 GMT 40.504124 -90.376907 36,000 267 401 0
2021-01-06 22:42:55 GMT 40.504532 -90.367371 36,000 267 402 0
2021-01-06 22:42:52 GMT 40.504807 -90.361572 36,000 267 403 -64
2021-01-06 22:42:49 GMT 40.505196 -90.352562 36,000 267 403 -64
2021-01-06 22:42:46 GMT 40.505493 -90.345947 36,000 267 403 -128
2021-01-06 22:42:43 GMT 40.505859 -90.336670 36,000 267 404 -64
2021-01-06 22:42:40 GMT 40.506268 -90.328094 36,000 267 404 0
2021-01-06 22:42:37 GMT 40.506592 -90.320290 36,000 267 404 0
2021-01-06 22:42:34 GMT 40.506775 -90.316589 36,000 267 404 0
2021-01-06 22:42:31 GMT 40.507141 -90.308289 36,000 267 404 0
2021-01-06 22:42:28 GMT 40.507477 -90.300690 36,000 267 404 -64
2021-01-06 22:42:25 GMT 40.507874 -90.291626 36,000 267 404 0
2021-01-06 22:42:21 GMT 40.508266 -90.282089 36,000 267 404 0
2021-01-06 22:42:18 GMT 40.508549 -90.276222 36,000 267 404 0
2021-01-06 22:42:14 GMT 40.509018 -90.265198 36,000 267 404 0
2021-01-06 22:42:11 GMT 40.509247 -90.260254 36,000 267 404 0
2021-01-06 22:42:08 GMT 40.509659 -90.250488 36,000 267 404 0
2021-01-06 22:42:03 GMT 40.510178 -90.238953 36,000 267 404 0
2021-01-06 22:42:00 GMT 40.510437 -90.232361 36,000 267 404 -128
2021-01-06 22:41:57 GMT 40.510803 -90.224548 36,000 267 404 -128
2021-01-06 22:41:53 GMT 40.511261 -90.213501 36,000 267 404 -64
2021-01-06 22:41:50 GMT 40.511627 -90.204956 36,000 267 404 0
2021-01-06 22:41:47 GMT 40.511902 -90.198059 36,000 267 404 0
2021-01-06 22:41:43 GMT 40.512314 -90.188782 36,000 267 404 0
2021-01-06 22:41:39 GMT 40.512646 -90.181213 36,000 267 404 0
2021-01-06 22:41:36 GMT 40.512970 -90.173347 36,000 267 404 64
2021-01-06 22:41:29 GMT 40.513733 -90.156006 36,000 267 404 0
2021-01-06 22:41:26 GMT 40.514042 -90.148438 36,000 267 404 0
2021-01-06 22:41:23 GMT 40.514458 -90.138641 36,000 267 404 0
2021-01-06 22:41:19 GMT 40.514786 -90.130272 36,000 267 404 -64
2021-01-06 22:41:16 GMT 40.515106 -90.123169 36,000 267 404 0
2021-01-06 22:41:12 GMT 40.515472 -90.114380 36,000 267 404 -64
2021-01-06 22:41:09 GMT 40.515858 -90.105309 36,000 267 404 -64
2021-01-06 22:41:06 GMT 40.516136 -90.098999 36,000 267 404 -64
2021-01-06 22:41:03 GMT 40.516434 -90.091370 36,000 267 404 0
2021-01-06 22:40:58 GMT 40.516972 -90.078903 36,000 267 404 64
2021-01-06 22:40:55 GMT 40.517254 -90.071594 36,000 267 404 64
2021-01-06 22:40:50 GMT 40.517670 -90.061584 36,000 267 404 0
2021-01-06 22:40:47 GMT 40.518276 -90.047127 36,000 267 403 0
2021-01-06 22:40:44 GMT 40.518276 -90.047127 36,000 267 403 64
2021-01-06 22:40:38 GMT 40.518951 -90.030762 36,000 267 403 64
2021-01-06 22:40:35 GMT 40.519348 -90.021721 36,000 267 403 64
2021-01-06 22:40:32 GMT 40.519485 -90.018288 36,000 267 403 -64
2021-01-06 22:40:29 GMT 40.519867 -90.009277 36,000 267 403 -64
2021-01-06 22:40:26 GMT 40.520279 -89.999252 36,000 267 403 -64
2021-01-06 22:40:22 GMT 40.520554 -89.993103 36,000 267 403 -64
2021-01-06 22:40:19 GMT 40.520828 -89.986755 36,000 267 403 -64
2021-01-06 22:40:16 GMT 40.521301 -89.975281 36,000 267 403 0
2021-01-06 22:40:13 GMT 40.521515 -89.970154 36,000 267 403 64
2021-01-06 22:40:08 GMT 40.521973 -89.958435 36,000 267 402 0
2021-01-06 22:40:05 GMT 40.522560 -89.945068 36,000 267 402 0
2021-01-06 22:40:02 GMT 40.522560 -89.945068 36,000 267 402 0
2021-01-06 22:39:59 GMT 40.522842 -89.937988 36,000 267 402 -64
2021-01-06 22:39:56 GMT 40.523212 -89.928963 36,000 267 402 -64
2021-01-06 22:39:53 GMT 40.523537 -89.921158 36,000 267 402 0
2021-01-06 22:39:50 GMT 40.523865 -89.912857 36,000 267 402 0
2021-01-06 22:39:45 GMT 40.524376 -89.900185 36,000 268 402 64
2021-01-06 22:39:42 GMT 40.524582 -89.895081 36,000 267 402 0
2021-01-06 22:39:37 GMT 40.525131 -89.881470 36,000 267 401 0
2021-01-06 22:39:34 GMT 40.525398 -89.875343 36,000 267 402 0
2021-01-06 22:39:31 GMT 40.525631 -89.869537 36,000 267 401 0
2021-01-06 22:39:28 GMT 40.526001 -89.861023 36,000 267 401 0
2021-01-06 22:39:25 GMT 40.526237 -89.854935 36,000 267 401 0
2021-01-06 22:39:22 GMT 40.526642 -89.844482 36,000 268 401 0
2021-01-06 22:39:18 GMT 40.526981 -89.836952 36,000 268 401 0
2021-01-06 22:39:15 GMT 40.527237 -89.829895 36,000 267 401 0
2021-01-06 22:39:12 GMT 40.527649 -89.820190 36,000 267 401 64
2021-01-06 22:39:09 GMT 40.527866 -89.814606 36,000 268 401 64
2021-01-06 22:39:05 GMT 40.528286 -89.804871 36,000 268 401 0
2021-01-06 22:39:02 GMT 40.528751 -89.792694 36,000 267 401 0
2021-01-06 22:38:59 GMT 40.528889 -89.789322 36,000 267 401 0
2021-01-06 22:38:56 GMT 40.529205 -89.782288 36,000 267 400 64
2021-01-06 22:38:53 GMT 40.529591 -89.772842 36,000 267 400 0
2021-01-06 22:38:49 GMT 40.529846 -89.765808 36,000 267 400 0
2021-01-06 22:38:44 GMT 40.530289 -89.754372 36,000 267 400 64
2021-01-06 22:38:41 GMT 40.530704 -89.744690 36,000 267 400 0
2021-01-06 22:38:37 GMT 40.531082 -89.734741 36,000 267 400 -64
2021-01-06 22:38:34 GMT 40.531265 -89.729919 36,000 267 400 64
2021-01-06 22:38:31 GMT 40.531540 -89.722656 36,000 267 400 64
2021-01-06 22:38:28 GMT 40.531860 -89.715393 36,000 267 400 -64
2021-01-06 22:38:23 GMT 40.532333 -89.702995 36,000 268 399 0
2021-01-06 22:38:20 GMT 40.532803 -89.690445 36,000 268 399 0
2021-01-06 22:38:17 GMT 40.532803 -89.690445 36,000 268 399 64
2021-01-06 22:38:12 GMT 40.533417 -89.675232 36,000 268 399 64
2021-01-06 22:38:08 GMT 40.533783 -89.665039 36,000 268 399 64
2021-01-06 22:38:04 GMT 40.534058 -89.658302 36,000 268 399 -64
2021-01-06 22:38:01 GMT 40.534336 -89.651245 36,000 268 399 -64
2021-01-06 22:37:58 GMT 40.534664 -89.642570 36,000 268 398 64
2021-01-06 22:37:54 GMT 40.534988 -89.633392 36,000 268 398 64
2021-01-06 22:37:50 GMT 40.535385 -89.623535 36,000 268 398 0
2021-01-06 22:37:47 GMT 40.536293 -89.599121 36,000 268 398 -64
2021-01-06 22:37:41 GMT 40.536293 -89.599121 36,000 268 398 -64
2021-01-06 22:37:37 GMT 40.536575 -89.592651 36,000 268 397 -128
2021-01-06 22:37:33 GMT 40.536896 -89.583496 36,025 268 397 -64
2021-01-06 22:37:29 GMT 40.537399 -89.570496 36,000 268 397 64
2021-01-06 22:37:26 GMT 40.537643 -89.563545 36,000 268 397 64
2021-01-06 22:37:23 GMT 40.538223 -89.548401 36,000 268 396 0
2021-01-06 22:37:20 GMT 40.538223 -89.548401 36,000 268 396 0
2021-01-06 22:37:17 GMT 40.538479 -89.541885 36,000 268 396 0
2021-01-06 22:37:12 GMT 40.538807 -89.532768 36,000 268 396 0
2021-01-06 22:37:09 GMT 40.539093 -89.525330 36,000 268 395 0
2021-01-06 22:37:06 GMT 40.539364 -89.517410 36,000 268 395 0
2021-01-06 22:37:03 GMT 40.539688 -89.508545 36,000 268 395 0
2021-01-06 22:36:59 GMT 40.540009 -89.499878 36,000 268 395 0
2021-01-06 22:36:56 GMT 40.540482 -89.487701 36,000 268 395 0
2021-01-06 22:36:53 GMT 40.540482 -89.487701 36,000 268 395 0
2021-01-06 22:36:50 GMT 40.540741 -89.480286 36,000 268 395 0
2021-01-06 22:36:46 GMT 40.541180 -89.468040 36,000 268 395 -64
2021-01-06 22:36:42 GMT 40.541599 -89.457550 36,000 268 394 0
2021-01-06 22:36:39 GMT 40.541691 -89.454178 36,000 268 394 0
2021-01-06 22:36:36 GMT 40.542297 -89.437950 36,000 268 394 64
2021-01-06 22:36:33 GMT 40.542297 -89.437950 36,000 268 394 64
2021-01-06 22:36:29 GMT 40.542709 -89.427185 36,000 268 393 0
2021-01-06 22:36:26 GMT 40.542892 -89.421509 36,000 268 393 0
2021-01-06 22:36:23 GMT 40.543259 -89.412415 36,000 268 393 0
2021-01-06 22:36:20 GMT 40.543369 -89.408859 36,000 268 393 0
2021-01-06 22:36:16 GMT 40.543854 -89.396240 36,000 268 392 0
2021-01-06 22:36:11 GMT 40.544312 -89.383850 36,000 268 392 0
2021-01-06 22:36:07 GMT 40.544624 -89.374588 36,000 268 392 0
2021-01-06 22:36:03 GMT 40.544998 -89.364868 36,000 268 392 0
2021-01-06 22:36:00 GMT 40.545185 -89.359856 36,000 268 391 -64
2021-01-06 22:35:57 GMT 40.545509 -89.350868 36,000 268 391 0
2021-01-06 22:35:54 GMT 40.545776 -89.343506 36,000 268 391 0
2021-01-06 22:35:50 GMT 40.546097 -89.334961 36,000 268 390 0
2021-01-06 22:35:47 GMT 40.546326 -89.328369 36,000 268 390 0
2021-01-06 22:35:42 GMT 40.546783 -89.315552 36,000 268 390 0
2021-01-06 22:35:39 GMT 40.547001 -89.310173 36,000 268 389 0
2021-01-06 22:35:36 GMT 40.547241 -89.302856 36,000 268 389 0
2021-01-06 22:35:33 GMT 40.547607 -89.293396 36,000 268 389 0
2021-01-06 22:35:29 GMT 40.547886 -89.285637 36,000 268 388 -64
2021-01-06 22:35:26 GMT 40.548164 -89.278526 36,000 268 388 0
2021-01-06 22:35:23 GMT 40.548347 -89.272903 36,000 268 388 0
2021-01-06 22:35:20 GMT 40.548615 -89.265564 36,000 268 388 0
2021-01-06 22:35:17 GMT 40.548889 -89.258057 36,000 268 388 0
2021-01-06 22:35:14 GMT 40.549072 -89.252869 36,000 268 388 0
2021-01-06 22:35:11 GMT 40.549419 -89.242821 36,000 268 387 0
2021-01-06 22:35:08 GMT 40.549652 -89.236702 36,000 268 387 0
2021-01-06 22:35:05 GMT 40.549885 -89.230080 36,000 268 387 0
2021-01-06 22:35:02 GMT 40.550171 -89.221863 36,000 268 388 0
2021-01-06 22:34:59 GMT 40.550308 -89.217224 36,000 268 388 0
2021-01-06 22:34:56 GMT 40.550629 -89.208488 36,000 268 388 64
2021-01-06 22:34:53 GMT 40.550903 -89.200256 36,000 268 388 64
2021-01-06 22:34:50 GMT 40.551132 -89.193237 36,000 268 388 0
2021-01-06 22:34:47 GMT 40.551376 -89.187325 36,000 268 388 0
2021-01-06 22:34:44 GMT 40.551590 -89.180542 36,000 268 388 0
2021-01-06 22:34:41 GMT 40.551865 -89.173950 36,000 268 388 0
2021-01-06 22:34:38 GMT 40.552029 -89.168533 36,000 268 388 -64
2021-01-06 22:34:35 GMT 40.552414 -89.158386 36,000 268 388 -64
2021-01-06 22:34:32 GMT 40.552597 -89.151794 36,000 268 389 0
2021-01-06 22:34:29 GMT 40.552917 -89.142822 36,000 268 389 0
2021-01-06 22:34:26 GMT 40.553143 -89.135513 36,000 268 389 0
2021-01-06 22:34:23 GMT 40.553516 -89.124718 36,000 268 391 0
2021-01-06 22:34:20 GMT 40.553516 -89.124718 36,000 268 389 0
2021-01-06 22:34:17 GMT 40.553833 -89.116455 36,000 268 389 0
2021-01-06 22:34:14 GMT 40.554062 -89.109375 36,000 268 389 0
2021-01-06 22:34:11 GMT 40.554260 -89.102554 36,000 268 389 0
2021-01-06 22:34:08 GMT 40.554611 -89.093323 36,000 268 390 0
2021-01-06 22:34:04 GMT 40.554886 -89.085266 36,000 268 390 0
2021-01-06 22:34:01 GMT 40.555115 -89.078186 36,000 268 390 0
2021-01-06 22:33:58 GMT 40.555378 -89.070404 36,000 268 390 0
2021-01-06 22:33:55 GMT 40.555565 -89.064224 36,000 268 390 0
2021-01-06 22:33:51 GMT 40.555847 -89.055969 36,000 268 391 0
2021-01-06 22:33:48 GMT 40.556030 -89.050293 36,000 268 391 0
2021-01-06 22:33:45 GMT 40.556351 -89.040771 36,000 268 391 0
2021-01-06 22:33:42 GMT 40.556587 -89.032951 36,000 268 392 -64
2021-01-06 22:33:39 GMT 40.556870 -89.024902 36,000 268 391 0
2021-01-06 22:33:36 GMT 40.556992 -89.020386 36,000 268 392 -64
2021-01-06 22:33:33 GMT 40.557312 -89.010437 36,000 268 392 -64
2021-01-06 22:33:30 GMT 40.557495 -89.004272 36,000 268 392 -64
2021-01-06 22:33:27 GMT 40.557678 -88.998535 36,000 268 392 0
2021-01-06 22:33:24 GMT 40.557953 -88.989990 36,000 268 392 -64
2021-01-06 22:33:20 GMT 40.558182 -88.982849 36,000 268 392 0
2021-01-06 22:33:17 GMT 40.558544 -88.972656 36,000 268 392 0
2021-01-06 22:33:14 GMT 40.558685 -88.967911 36,000 268 392 0
2021-01-06 22:33:11 GMT 40.558918 -88.961227 36,000 268 392 0
2021-01-06 22:33:08 GMT 40.559242 -88.951241 36,000 268 393 0
2021-01-06 22:33:05 GMT 40.559429 -88.946503 36,000 268 393 64
2021-01-06 22:33:02 GMT 40.559662 -88.939323 36,000 268 393 64
2021-01-06 22:32:59 GMT 40.559875 -88.932434 36,000 268 393 0
2021-01-06 22:32:56 GMT 40.560150 -88.924805 36,000 268 393 0
2021-01-06 22:32:53 GMT 40.560452 -88.915474 36,000 268 393 0
2021-01-06 22:32:50 GMT 40.560654 -88.909546 36,000 268 394 0
2021-01-06 22:32:47 GMT 40.560917 -88.901176 36,000 268 394 0
2021-01-06 22:32:44 GMT 40.561020 -88.897583 36,000 268 394 0
2021-01-06 22:32:40 GMT 40.561337 -88.886887 36,000 268 394 0
2021-01-06 22:32:37 GMT 40.561569 -88.880646 36,000 268 394 0
2021-01-06 22:32:33 GMT 40.561844 -88.871826 36,000 268 394 0
2021-01-06 22:32:30 GMT 40.562222 -88.860107 36,000 268 395 0
2021-01-06 22:32:27 GMT 40.562393 -88.855530 36,000 268 395 0
2021-01-06 22:32:24 GMT 40.562714 -88.845947 36,000 268 395 0
2021-01-06 22:32:21 GMT 40.562965 -88.838570 36,000 268 395 0
2021-01-06 22:32:17 GMT 40.563171 -88.832581 36,000 268 395 0
2021-01-06 22:32:14 GMT 40.563400 -88.825378 36,000 268 396 0
2021-01-06 22:32:11 GMT 40.563721 -88.815308 36,000 268 396 64
2021-01-06 22:32:08 GMT 40.563995 -88.806213 36,000 268 396 64
2021-01-06 22:32:05 GMT 40.564133 -88.801880 36,000 268 396 0
2021-01-06 22:32:02 GMT 40.564270 -88.797546 36,000 268 396 0
2021-01-06 22:31:58 GMT 40.564644 -88.785759 36,000 268 403 0
2021-01-06 22:31:54 GMT 40.564957 -88.775452 36,000 268 397 0
2021-01-06 22:31:50 GMT 40.565247 -88.765602 36,000 268 397 0
2021-01-06 22:31:47 GMT 40.565388 -88.760796 36,000 268 397 0
2021-01-06 22:31:44 GMT 40.565643 -88.752380 36,000 268 397 0
2021-01-06 22:31:40 GMT 40.565990 -88.742004 36,000 268 398 -64
2021-01-06 22:31:36 GMT 40.566284 -88.732117 36,000 268 398 0
2021-01-06 22:31:33 GMT 40.566505 -88.725586 36,000 268 398 0
2021-01-06 22:31:30 GMT 40.567017 -88.709900 36,000 268 398 0
2021-01-06 22:31:27 GMT 40.567017 -88.709900 36,000 268 398 0
2021-01-06 22:31:24 GMT 40.567154 -88.704590 36,000 268 399 0
2021-01-06 22:31:21 GMT 40.567429 -88.696899 36,000 268 399 0
2021-01-06 22:31:18 GMT 40.567657 -88.688171 36,000 268 399 0
2021-01-06 22:31:14 GMT 40.567886 -88.681885 36,000 268 400 0
2021-01-06 22:31:11 GMT 40.568180 -88.672462 36,000 268 399 0
2021-01-06 22:31:07 GMT 40.568481 -88.662048 36,000 268 400 0
2021-01-06 22:31:03 GMT 40.568787 -88.652115 36,000 268 400 0
2021-01-06 22:31:00 GMT 40.569031 -88.643616 36,000 268 400 0
2021-01-06 22:30:57 GMT 40.569206 -88.637573 36,000 268 400 0
2021-01-06 22:30:53 GMT 40.569389 -88.631203 36,000 268 400 0
2021-01-06 22:30:49 GMT 40.569809 -88.618591 36,000 268 401 0
2021-01-06 22:30:46 GMT 40.569992 -88.612061 36,000 268 401 0
2021-01-06 22:30:43 GMT 40.570175 -88.606201 36,000 268 401 0
2021-01-06 22:30:40 GMT 40.570450 -88.595947 36,000 268 402 0
2021-01-06 22:30:37 GMT 40.570679 -88.588684 36,000 269 402 0
2021-01-06 22:30:34 GMT 40.570908 -88.580872 36,000 269 402 0
2021-01-06 22:30:31 GMT 40.571136 -88.572571 36,000 268 403 -64
2021-01-06 22:30:27 GMT 40.571346 -88.564034 36,000 268 403 0
2021-01-06 22:30:24 GMT 40.571503 -88.559387 36,000 268 403 0
2021-01-06 22:30:21 GMT 40.572006 -88.541260 36,000 268 405 0
2021-01-06 22:30:18 GMT 40.572006 -88.541260 36,000 268 404 -64
2021-01-06 22:30:15 GMT 40.572144 -88.535889 36,000 268 404 -64
2021-01-06 22:30:12 GMT 40.572369 -88.529266 36,000 268 404 -64
2021-01-06 22:30:09 GMT 40.572647 -88.519226 36,000 268 405 0
2021-01-06 22:30:06 GMT 40.572788 -88.514038 36,000 268 405 0
2021-01-06 22:30:03 GMT 40.573059 -88.504944 36,000 268 405 0
2021-01-06 22:29:59 GMT 40.573334 -88.496582 36,000 268 405 0
2021-01-06 22:29:55 GMT 40.573654 -88.486267 36,000 268 405 0
2021-01-06 22:29:52 GMT 40.573837 -88.478943 36,000 268 405 64
2021-01-06 22:29:48 GMT 40.574047 -88.472275 36,000 268 405 64
2021-01-06 22:29:45 GMT 40.574417 -88.459480 36,000 268 405 0
2021-01-06 22:29:42 GMT 40.574558 -88.454109 36,000 268 405 0
2021-01-06 22:29:39 GMT 40.574745 -88.448181 36,000 268 405 0
2021-01-06 22:29:36 GMT 40.574978 -88.439377 36,000 268 405 0
2021-01-06 22:29:33 GMT 40.575211 -88.431274 36,000 268 405 -64
2021-01-06 22:29:30 GMT 40.575394 -88.425842 36,000 268 405 0
2021-01-06 22:29:27 GMT 40.575630 -88.417282 36,000 268 405 0
2021-01-06 22:29:24 GMT 40.575851 -88.409180 36,000 268 405 0
2021-01-06 22:29:21 GMT 40.576035 -88.403748 36,000 268 405 0
2021-01-06 22:29:18 GMT 40.576233 -88.396622 36,000 268 404 0
2021-01-06 22:29:15 GMT 40.576420 -88.389755 36,000 268 404 0
2021-01-06 22:29:12 GMT 40.576698 -88.380951 36,000 268 404 0
2021-01-06 22:29:09 GMT 40.576859 -88.374817 36,000 268 404 0
2021-01-06 22:29:06 GMT 40.577133 -88.364990 36,000 268 404 0
2021-01-06 22:29:03 GMT 40.577305 -88.358917 36,000 268 404 0
2021-01-06 22:29:00 GMT 40.577499 -88.352783 36,000 269 404 64
2021-01-06 22:28:56 GMT 40.577820 -88.341003 36,000 268 404 64
2021-01-06 22:28:52 GMT 40.578094 -88.332214 36,000 268 404 64
2021-01-06 22:28:49 GMT 40.578236 -88.326584 36,000 269 404 64
2021-01-06 22:28:46 GMT 40.578468 -88.318283 36,000 269 403 64
2021-01-06 22:28:43 GMT 40.578888 -88.302116 36,000 268 403 0
2021-01-06 22:28:40 GMT 40.578888 -88.302116 36,000 268 403 64
2021-01-06 22:28:37 GMT 40.579075 -88.294746 36,000 268 403 0
2021-01-06 22:28:33 GMT 40.579376 -88.284241 36,000 268 403 -64
2021-01-06 22:28:30 GMT 40.579514 -88.279358 36,000 268 403 0
2021-01-06 22:28:27 GMT 40.579788 -88.270569 36,000 268 403 -64
2021-01-06 22:28:24 GMT 40.580017 -88.261780 36,000 268 403 -64
2021-01-06 22:28:21 GMT 40.580338 -88.250000 36,000 269 403 0
2021-01-06 22:28:18 GMT 40.580338 -88.250000 36,000 269 403 0
2021-01-06 22:28:14 GMT 40.580563 -88.241440 36,000 269 403 0
2021-01-06 22:28:11 GMT 40.580845 -88.231705 36,000 268 403 0
2021-01-06 22:28:08 GMT 40.580982 -88.225334 36,000 268 403 0
2021-01-06 22:28:05 GMT 40.581207 -88.217285 36,000 268 402 0
2021-01-06 22:28:02 GMT 40.581482 -88.208496 36,000 268 402 0
2021-01-06 22:27:59 GMT 40.581757 -88.201660 36,000 267 402 -64
2021-01-06 22:27:55 GMT 40.582214 -88.192383 36,000 266 402 -64
2021-01-06 22:27:51 GMT 40.582752 -88.183884 36,000 266 402 -64
2021-01-06 22:27:48 GMT 40.583309 -88.175644 36,000 265 401 0
2021-01-06 22:27:44 GMT 40.584137 -88.165222 36,000 264 401 64
2021-01-06 22:27:41 GMT 40.584660 -88.159164 36,000 260 401 0
2021-01-06 22:27:38 GMT 40.586430 -88.142746 36,000 262 402 0
2021-01-06 22:27:35 GMT 40.586987 -88.137878 36,000 261 401 0
2021-01-06 22:27:32 GMT 40.586987 -88.137878 36,000 260 401 0
2021-01-06 22:27:29 GMT 40.587891 -88.130920 36,000 259 400 0
2021-01-06 22:27:26 GMT 40.588760 -88.124695 36,000 260 401 0
2021-01-06 22:27:23 GMT 40.590294 -88.114471 36,000 259 401 0
2021-01-06 22:27:20 GMT 40.591362 -88.107796 36,000 259 401 -64
2021-01-06 22:27:17 GMT 40.592514 -88.100403 36,000 259 401 0
2021-01-06 22:27:14 GMT 40.593552 -88.093933 36,000 259 400 0
2021-01-06 22:27:11 GMT 40.594856 -88.085381 36,000 259 400 0
2021-01-06 22:27:08 GMT 40.595581 -88.080872 36,000 259 400 0
2021-01-06 22:27:05 GMT 40.596809 -88.073021 36,000 259 400 0
2021-01-06 22:27:02 GMT 40.598206 -88.063972 36,000 259 400 0
2021-01-06 22:26:59 GMT 40.598812 -88.060165 36,000 259 399 0
2021-01-06 22:26:56 GMT 40.600117 -88.051613 36,000 259 396 0
2021-01-06 22:26:52 GMT 40.601624 -88.041870 36,000 259 400 0
2021-01-06 22:26:49 GMT 40.603142 -88.032135 36,000 259 399 0
2021-01-06 22:26:46 GMT 40.604095 -88.026184 36,000 259 399 0
2021-01-06 22:26:41 GMT 40.605789 -88.015259 36,000 259 398 0
2021-01-06 22:26:38 GMT 40.606888 -88.008118 36,000 259 399 0
2021-01-06 22:26:35 GMT 40.607758 -88.002441 36,000 259 398 0
2021-01-06 22:26:30 GMT 40.610031 -87.988007 36,000 259 398 0
2021-01-06 22:26:27 GMT 40.610596 -87.984436 36,000 259 398 0
2021-01-06 22:26:24 GMT 40.613663 -87.964783 36,000 259 396 0
2021-01-06 22:26:20 GMT 40.613663 -87.964783 36,000 259 397 0
2021-01-06 22:26:17 GMT 40.614716 -87.957886 36,000 259 397 0
2021-01-06 22:26:11 GMT 40.616821 -87.944214 36,000 259 396 0
2021-01-06 22:26:08 GMT 40.617947 -87.936882 36,000 259 396 0
2021-01-06 22:26:05 GMT 40.618973 -87.930481 36,000 259 396 64
2021-01-06 22:26:02 GMT 40.621536 -87.914001 36,000 259 396 0
2021-01-06 22:25:58 GMT 40.621536 -87.914001 36,000 259 396 0
2021-01-06 22:25:54 GMT 40.623138 -87.903625 36,000 259 396 0
2021-01-06 22:25:51 GMT 40.624229 -87.896805 36,000 259 395 0
2021-01-06 22:25:48 GMT 40.625484 -87.888756 36,000 259 395 0
2021-01-06 22:25:45 GMT 40.626114 -87.884766 36,000 259 395 0
2021-01-06 22:25:42 GMT 40.627068 -87.878456 36,000 259 396 0
2021-01-06 22:25:37 GMT 40.628838 -87.867157 36,000 259 394 0
2021-01-06 22:25:34 GMT 40.630325 -87.857483 36,000 259 394 0
2021-01-06 22:25:30 GMT 40.631790 -87.848145 36,000 259 394 0
2021-01-06 22:25:27 GMT 40.634144 -87.832886 36,000 259 394 0
2021-01-06 22:25:23 GMT 40.634144 -87.832886 36,000 259 393 0
2021-01-06 22:25:19 GMT 40.635914 -87.821152 36,000 259 393 0
2021-01-06 22:25:16 GMT 40.638428 -87.804932 36,000 259 394 0
2021-01-06 22:25:12 GMT 40.638428 -87.804932 36,000 259 393 0
2021-01-06 22:25:07 GMT 40.640102 -87.793930 36,000 259 394 0
2021-01-06 22:25:04 GMT 40.642479 -87.778450 36,000 259 394 0
2021-01-06 22:25:01 GMT 40.642479 -87.778450 36,000 259 394 0
2021-01-06 22:24:58 GMT 40.643509 -87.771606 36,000 259 394 0
2021-01-06 22:24:54 GMT 40.644882 -87.762695 36,000 259 395 0
2021-01-06 22:24:51 GMT 40.646061 -87.754921 36,000 259 395 0
2021-01-06 22:24:45 GMT 40.648205 -87.740746 36,000 259 395 0
2021-01-06 22:24:41 GMT 40.649368 -87.733261 36,000 259 396 0
2021-01-06 22:24:37 GMT 40.651108 -87.721680 36,000 259 396 0
2021-01-06 22:24:34 GMT 40.652905 -87.709602 36,000 259 396 0
2021-01-06 22:24:31 GMT 40.652905 -87.709602 36,000 259 397 -64
2021-01-06 22:24:28 GMT 40.653790 -87.703918 36,000 259 397 -64
2021-01-06 22:24:25 GMT 40.654770 -87.697304 36,000 259 397 -64
2021-01-06 22:24:22 GMT 40.656116 -87.688316 36,000 259 397 -64
2021-01-06 22:24:19 GMT 40.657421 -87.679825 36,000 259 397 0
2021-01-06 22:24:15 GMT 40.658493 -87.672707 36,000 259 398 64
2021-01-06 22:24:12 GMT 40.659805 -87.663940 36,000 259 398 -64
2021-01-06 22:24:08 GMT 40.661053 -87.655602 36,000 259 397 0
2021-01-06 22:24:03 GMT 40.663147 -87.641808 36,000 259 398 -64
2021-01-06 22:24:00 GMT 40.664032 -87.636131 36,000 259 398 -64
2021-01-06 22:23:57 GMT 40.664963 -87.629951 36,000 259 398 -64
2021-01-06 22:23:54 GMT 40.666397 -87.620728 36,000 259 398 0
2021-01-06 22:23:51 GMT 40.666920 -87.617149 36,000 259 397 0
2021-01-06 22:23:48 GMT 40.668549 -87.606506 36,000 259 397 0
2021-01-06 22:23:45 GMT 40.669617 -87.599609 36,000 259 396 0
2021-01-06 22:23:42 GMT 40.670689 -87.592560 36,000 259 395 0
2021-01-06 22:23:39 GMT 40.671616 -87.586670 36,000 259 394 0
2021-01-06 22:23:36 GMT 40.672394 -87.581482 36,000 259 393 0
2021-01-06 22:23:32 GMT 40.674454 -87.567871 36,000 259 391 0
2021-01-06 22:23:29 GMT 40.675484 -87.561096 36,000 259 390 0
2021-01-06 22:23:24 GMT 40.677292 -87.549255 36,000 259 389 64
2021-01-06 22:23:21 GMT 40.678207 -87.543274 36,000 259 386 -64
2021-01-06 22:23:18 GMT 40.679031 -87.537964 36,000 259 387 0
2021-01-06 22:23:15 GMT 40.680450 -87.528503 36,000 259 385 0
2021-01-06 22:23:12 GMT 40.681503 -87.521606 36,000 259 384 0
2021-01-06 22:23:09 GMT 40.682190 -87.517029 36,000 259 382 0
2021-01-06 22:23:04 GMT 40.683815 -87.506294 36,000 259 381 64
2021-01-06 22:23:01 GMT 40.684933 -87.499046 35,925 259 374 256
2021-01-06 22:22:58 GMT 40.686237 -87.490501 36,000 259 378 192
2021-01-06 22:22:51 GMT 40.688644 -87.474915 35,975 259 375 128
2021-01-06 22:22:48 GMT 40.689651 -87.468201 35,950 259 375 128
2021-01-06 22:22:43 GMT 40.691219 -87.457726 35,925 259 373 512
2021-01-06 22:22:40 GMT 40.692261 -87.450867 35,825 259 374 1408
2021-01-06 22:22:37 GMT 40.693218 -87.444427 33,725 259 386 1344
2021-01-06 22:22:34 GMT 40.694412 -87.436646 35,800 259 372 1344
2021-01-06 22:22:30 GMT 40.695465 -87.429565 35,575 259 373 1408
2021-01-06 22:22:26 GMT 40.696747 -87.421082 35,625 259 373 1408
2021-01-06 22:22:21 GMT 40.698479 -87.409721 35,525 259 374 1408
2021-01-06 22:22:18 GMT 40.699551 -87.402611 35,425 259 374 1344
2021-01-06 22:22:15 GMT 40.700993 -87.393181 33,725 259 386 1344
2021-01-06 22:22:12 GMT 40.701645 -87.388748 35,275 259 376 1408
2021-01-06 22:22:09 GMT 40.702377 -87.384033 35,225 259 376 1408
2021-01-06 22:22:06 GMT 40.703739 -87.374832 35,125 259 376 1408
2021-01-06 22:22:00 GMT 40.706814 -87.354172 34,975 259 377 1408
2021-01-06 22:21:57 GMT 40.706814 -87.354172 34,850 260 377 1408
2021-01-06 22:21:53 GMT 40.708282 -87.344482 34,825 259 379 1408
2021-01-06 22:21:49 GMT 40.709328 -87.337440 34,750 259 379 1408
2021-01-06 22:21:45 GMT 40.710892 -87.326843 34,625 259 379 1408
2021-01-06 22:21:42 GMT 40.711945 -87.320068 34,550 259 380 1344
2021-01-06 22:21:39 GMT 40.712814 -87.314148 34,500 259 380 1344
2021-01-06 22:21:34 GMT 40.714371 -87.303711 34,400 259 381 1408
2021-01-06 22:21:29 GMT 40.716030 -87.292557 34,200 259 382 1408
2021-01-06 22:21:26 GMT 40.717346 -87.283691 34,175 259 382 1408
2021-01-06 22:21:23 GMT 40.718498 -87.276199 34,100 259 382 1408
2021-01-06 22:21:20 GMT 40.719105 -87.272079 34,025 260 383 1408
2021-01-06 22:21:17 GMT 40.720173 -87.264778 33,450 259 385 1408
2021-01-06 22:21:13 GMT 40.721512 -87.255859 33,725 259 386 1344
2021-01-06 22:21:10 GMT 40.722733 -87.247421 33,800 260 384 1344
2021-01-06 22:21:07 GMT 40.723385 -87.243309 33,700 260 384 1344
2021-01-06 22:21:04 GMT 40.724361 -87.236443 33,600 260 384 1408
2021-01-06 22:20:58 GMT 40.726692 -87.220833 33,450 259 385 1408
2021-01-06 22:20:55 GMT 40.727463 -87.215515 33,475 259 385 1408
2021-01-06 22:20:52 GMT 40.728645 -87.207474 33,400 259 385 1344
2021-01-06 22:20:47 GMT 40.730438 -87.195312 33,275 259 386 1344
2021-01-06 22:20:44 GMT 40.731491 -87.188416 33,200 259 386 1344
2021-01-06 22:20:41 GMT 40.732178 -87.183777 32,800 260 386 1408
2021-01-06 22:20:35 GMT 40.734833 -87.165771 32,975 260 386 1408
2021-01-06 22:20:31 GMT 40.736050 -87.157227 32,900 260 387 1408
2021-01-06 22:20:28 GMT 40.736710 -87.152832 32,875 260 387 1408
2021-01-06 22:20:25 GMT 40.737679 -87.146111 32,725 260 388 1344
2021-01-06 22:20:22 GMT 40.738564 -87.140121 32,725 260 388 1344
2021-01-06 22:20:19 GMT 40.740097 -87.129700 32,600 260 388 1344
2021-01-06 22:20:16 GMT 40.740795 -87.124825 32,600 260 388 1344
2021-01-06 22:20:13 GMT 40.742157 -87.115784 32,425 260 389 1408
2021-01-06 22:20:10 GMT 40.742706 -87.111847 32,425 260 389 1408
2021-01-06 22:20:07 GMT 40.743683 -87.105293 32,375 260 389 1408
2021-01-06 22:20:04 GMT 40.744892 -87.096924 32,225 260 389 1408
2021-01-06 22:20:01 GMT 40.746101 -87.088562 32,200 260 389 1408
2021-01-06 22:19:58 GMT 40.747730 -87.077385 32,075 260 389 1408
2021-01-06 22:19:55 GMT 40.749298 -87.066467 32,000 260 389 1408
2021-01-06 22:19:51 GMT 40.749298 -87.066467 31,900 260 391 1344
2021-01-06 22:19:48 GMT 40.750061 -87.061096 31,950 260 391 1408
2021-01-06 22:19:45 GMT 40.751266 -87.052917 31,750 259 391 1344
2021-01-06 22:19:42 GMT 40.752365 -87.045654 31,775 259 391 1344
2021-01-06 22:19:38 GMT 40.753784 -87.035873 31,675 260 392 1408
2021-01-06 22:19:35 GMT 40.754761 -87.029320 31,625 260 391 1408
2021-01-06 22:19:32 GMT 40.755833 -87.021828 31,500 260 392 1408
2021-01-06 22:19:29 GMT 40.756577 -87.016907 31,475 260 392 1408
2021-01-06 22:19:26 GMT 40.757721 -87.008911 31,400 260 392 1408
2021-01-06 22:19:23 GMT 40.759277 -86.998360 31,275 260 393 1344
2021-01-06 22:19:20 GMT 40.759918 -86.993958 31,250 260 393 1344
2021-01-06 22:19:16 GMT 40.761234 -86.984749 31,125 260 392 1408
2021-01-06 22:19:13 GMT 40.762585 -86.975388 31,075 260 393 1408
2021-01-06 22:19:10 GMT 40.763561 -86.968773 31,000 260 393 1408
2021-01-06 22:19:05 GMT 40.765091 -86.958252 30,900 260 394 1408
2021-01-06 22:19:02 GMT 40.765961 -86.952087 30,825 260 394 1408
2021-01-06 22:18:59 GMT 40.766956 -86.945297 30,750 260 394 1344
2021-01-06 22:18:54 GMT 40.768570 -86.934204 30,625 260 394 1344
2021-01-06 22:18:51 GMT 40.769939 -86.925011 30,575 260 394 1280
2021-01-06 22:18:48 GMT 40.770767 -86.919128 30,350 260 401 576
2021-01-06 22:18:45 GMT 40.772221 -86.909470 30,400 260 394 1344
2021-01-06 22:18:42 GMT 40.773193 -86.902649 30,350 260 394 1408
2021-01-06 22:18:38 GMT 40.774200 -86.895569 30,325 260 394 1408
2021-01-06 22:18:34 GMT 40.776901 -86.877197 30,125 260 394 2112
2021-01-06 22:18:31 GMT 40.776901 -86.877197 30,050 260 395 2176
2021-01-06 22:18:28 GMT 40.777946 -86.869896 29,675 260 396 2048
2021-01-06 22:18:25 GMT 40.778961 -86.862488 29,825 260 397 1984
2021-01-06 22:18:22 GMT 40.779900 -86.856102 29,725 260 397 1920
2021-01-06 22:18:18 GMT 40.781433 -86.845337 29,525 260 401 1728
2021-01-06 22:18:14 GMT 40.782486 -86.838196 29,475 260 399 1728
2021-01-06 22:18:10 GMT 40.783951 -86.827888 29,350 260 401 1728
2021-01-06 22:18:07 GMT 40.784836 -86.821709 29,025 260 401 640
2021-01-06 22:18:03 GMT 40.786465 -86.810654 29,175 259 402 1664
2021-01-06 22:18:00 GMT 40.787300 -86.804848 29,100 260 402 1536
2021-01-06 22:17:57 GMT 40.788418 -86.797173 29,025 260 401 576
2021-01-06 22:17:54 GMT 40.789719 -86.788269 29,000 260 401 640
2021-01-06 22:17:49 GMT 40.791306 -86.777512 28,925 260 399 768
2021-01-06 22:17:45 GMT 40.792328 -86.770332 28,800 260 398 960
2021-01-06 22:17:42 GMT 40.793884 -86.759583 28,825 260 397 1024
2021-01-06 22:17:39 GMT 40.794571 -86.754822 28,750 260 398 1088
2021-01-06 22:17:36 GMT 40.795807 -86.746277 28,225 260 397 1152
2021-01-06 22:17:33 GMT 40.796722 -86.740112 28,700 260 397 1152
2021-01-06 22:17:29 GMT 40.798149 -86.730377 28,600 260 397 1088
2021-01-06 22:17:26 GMT 40.799149 -86.723511 28,550 260 395 1088
2021-01-06 22:17:23 GMT 40.800335 -86.715210 28,500 260 395 1024
2021-01-06 22:17:20 GMT 40.801163 -86.709290 28,450 260 395 1024
2021-01-06 22:17:17 GMT 40.802032 -86.703125 28,350 260 394 1024
2021-01-06 22:17:14 GMT 40.802944 -86.696739 28,350 260 394 1024
2021-01-06 22:17:11 GMT 40.803921 -86.690117 28,325 260 394 1024
2021-01-06 22:17:08 GMT 40.805130 -86.681633 28,250 260 393 960
2021-01-06 22:17:05 GMT 40.806290 -86.673401 28,175 260 392 896
2021-01-06 22:17:02 GMT 40.807041 -86.668457 28,175 260 392 896
2021-01-06 22:16:59 GMT 40.808212 -86.660217 28,100 260 390 704
2021-01-06 22:16:56 GMT 40.809227 -86.652977 28,100 260 390 704
2021-01-06 22:16:52 GMT 40.810822 -86.641968 28,025 260 389 768
2021-01-06 22:16:46 GMT 40.812717 -86.628258 27,900 260 387 1152
2021-01-06 22:16:41 GMT 40.814117 -86.618088 27,850 260 387 1408
2021-01-06 22:16:38 GMT 40.815140 -86.610657 27,750 260 387 1792
2021-01-06 22:16:35 GMT 40.815884 -86.605103 27,575 260 387 1984
2021-01-06 22:16:30 GMT 40.817421 -86.593925 27,525 260 388 2112
2021-01-06 22:16:25 GMT 40.819336 -86.580200 27,300 260 389 2176
2021-01-06 22:16:21 GMT 40.820847 -86.569458 27,150 260 390 1984
2021-01-06 22:16:17 GMT 40.821892 -86.562218 27,025 260 391 1728
2021-01-06 22:16:14 GMT 40.822952 -86.554993 26,950 260 391 1536
2021-01-06 22:16:10 GMT 40.824142 -86.546570 26,875 260 391 1344
2021-01-06 22:16:06 GMT 40.825706 -86.535561 26,775 260 390 1344
2021-01-06 22:16:03 GMT 40.826431 -86.530151 26,725 260 390 1344
2021-01-06 22:16:00 GMT 40.827522 -86.522453 26,675 260 390 1344
2021-01-06 22:15:57 GMT 40.828732 -86.513779 26,525 260 389 1344
2021-01-06 22:15:54 GMT 40.829899 -86.505600 26,475 260 389 1344
2021-01-06 22:15:51 GMT 40.830597 -86.500732 26,400 260 388 1280
2021-01-06 22:15:48 GMT 40.831924 -86.491394 26,275 260 387 1280
2021-01-06 22:15:45 GMT 40.832565 -86.486755 26,300 260 387 1280
2021-01-06 22:15:42 GMT 40.833206 -86.482117 26,275 260 387 1344
2021-01-06 22:15:39 GMT 40.834412 -86.473511 26,175 260 386 1344
2021-01-06 22:15:35 GMT 40.835995 -86.462402 26,075 260 382 1280
2021-01-06 22:15:32 GMT 40.836510 -86.458717 26,050 260 385 1280
2021-01-06 22:15:29 GMT 40.837692 -86.450195 25,975 260 384 1280
2021-01-06 22:15:24 GMT 40.839340 -86.438171 25,850 260 383 1344
2021-01-06 22:15:21 GMT 40.839981 -86.433594 25,800 260 383 1344
2021-01-06 22:15:18 GMT 40.841396 -86.423759 25,700 260 382 1280
2021-01-06 22:15:15 GMT 40.842419 -86.416397 25,625 260 382 1280
2021-01-06 22:15:12 GMT 40.843231 -86.410706 25,600 260 381 1280
2021-01-06 22:15:09 GMT 40.844143 -86.404037 25,525 260 380 1280
2021-01-06 22:15:06 GMT 40.844841 -86.399040 25,475 260 380 1280
2021-01-06 22:15:02 GMT 40.846378 -86.388123 25,350 260 378 1344
2021-01-06 22:14:59 GMT 40.847626 -86.379272 25,300 260 378 1344
2021-01-06 22:14:55 GMT 40.848862 -86.370239 25,200 260 377 1280
2021-01-06 22:14:52 GMT 40.849773 -86.363647 25,150 260 376 1344
2021-01-06 22:14:49 GMT 40.850601 -86.357544 25,075 260 375 1280
2021-01-06 22:14:46 GMT 40.851498 -86.351044 25,025 260 375 1280
2021-01-06 22:14:43 GMT 40.852383 -86.344734 24,950 260 373 1280
2021-01-06 22:14:40 GMT 40.853222 -86.338928 24,900 260 373 1280
2021-01-06 22:14:37 GMT 40.854034 -86.332886 24,850 260 371 1280
2021-01-06 22:14:34 GMT 40.856339 -86.316208 24,675 260 370 1344
2021-01-06 22:14:29 GMT 40.856339 -86.316208 24,700 260 368 1344
2021-01-06 22:14:25 GMT 40.857971 -86.304443 24,550 260 368 1344
2021-01-06 22:14:20 GMT 40.859619 -86.293030 24,450 260 366 1344
2021-01-06 22:14:17 GMT 40.860577 -86.286186 24,250 260 362 1472
2021-01-06 22:14:12 GMT 40.861973 -86.276131 24,250 260 364 1472
2021-01-06 22:14:09 GMT 40.862778 -86.270264 24,200 260 363 1472
2021-01-06 22:14:05 GMT 40.864998 -86.254845 24,050 260 362 1472
2021-01-06 22:13:59 GMT 40.865742 -86.249603 23,925 260 360 1536
2021-01-06 22:13:56 GMT 40.866806 -86.242065 23,875 260 359 1472
2021-01-06 22:13:53 GMT 40.868347 -86.231125 23,750 260 357 1536
2021-01-06 22:13:50 GMT 40.868347 -86.231125 23,750 260 357 1472
2021-01-06 22:13:47 GMT 40.869282 -86.224258 23,675 260 356 1536
2021-01-06 22:13:44 GMT 40.872211 -86.202911 23,400 260 353 1472
2021-01-06 22:13:38 GMT 40.872211 -86.202911 23,400 260 353 1472
2021-01-06 22:13:35 GMT 40.872940 -86.197632 23,250 260 352 1536
2021-01-06 22:13:32 GMT 40.873981 -86.190239 23,250 260 351 1536
2021-01-06 22:13:29 GMT 40.874542 -86.185997 23,200 260 350 1472
2021-01-06 22:13:26 GMT 40.875423 -86.179695 23,125 260 349 1536
2021-01-06 22:13:22 GMT 40.876774 -86.170082 23,025 260 347 1472
2021-01-06 22:13:19 GMT 40.877705 -86.163399 22,950 260 346 1472
2021-01-06 22:13:15 GMT 40.879028 -86.153625 22,775 260 344 1472
2021-01-06 22:13:12 GMT 40.879753 -86.148415 22,750 260 343 1472
2021-01-06 22:13:09 GMT 40.880501 -86.143051 22,700 260 343 1472
2021-01-06 22:13:03 GMT 40.882004 -86.132202 22,475 260 339 1408
2021-01-06 22:12:57 GMT 40.883945 -86.118141 22,300 260 335 1408
2021-01-06 22:12:54 GMT 40.884830 -86.112022 22,275 260 336 1472
2021-01-06 22:12:51 GMT 40.885761 -86.105156 22,225 260 332 1472
2021-01-06 22:12:47 GMT 40.886856 -86.097351 22,150 260 333 1472
2021-01-06 22:12:43 GMT 40.887863 -86.090149 22,050 260 331 1472
2021-01-06 22:12:40 GMT 40.888741 -86.084000 21,975 260 330 1536
2021-01-06 22:12:37 GMT 40.889603 -86.077881 21,900 260 328 1536
2021-01-06 22:12:33 GMT 40.890785 -86.069206 21,775 260 325 1984
2021-01-06 22:12:30 GMT 40.891617 -86.063354 21,700 260 326 1920
2021-01-06 22:12:26 GMT 40.892441 -86.057495 21,600 260 325 2112
2021-01-06 22:12:22 GMT 40.893814 -86.047729 21,425 260 324 2304
2021-01-06 22:12:17 GMT 40.895325 -86.036865 21,175 260 323 2752
2021-01-06 22:12:12 GMT 40.896652 -86.027161 20,925 260 325 3008
2021-01-06 22:12:06 GMT 40.897911 -86.017952 20,700 260 326 3008
2021-01-06 22:12:02 GMT 40.898987 -86.009949 20,375 260 327 3008
2021-01-06 22:11:59 GMT 40.900097 -86.001915 20,225 260 328 3008
2021-01-06 22:11:55 GMT 40.901073 -85.994797 20,025 260 329 3008
2021-01-06 22:11:52 GMT 40.901493 -85.991615 20,050 260 329 3008
2021-01-06 22:11:49 GMT 40.902374 -85.985107 19,850 260 331 3008
2021-01-06 22:11:45 GMT 40.903473 -85.977173 19,475 260 331 3008
2021-01-06 22:11:40 GMT 40.905167 -85.964844 19,350 260 332 3008
2021-01-06 22:11:35 GMT 40.906429 -85.955467 19,125 261 334 3072
2021-01-06 22:11:29 GMT 40.907776 -85.945618 18,850 260 334 3072
2021-01-06 22:11:24 GMT 40.909550 -85.932564 18,525 260 336 3008
2021-01-06 22:11:20 GMT 40.910248 -85.927315 17,500 260 336 3072
2021-01-06 22:11:14 GMT 40.912262 -85.912537 17,725 260 339 3136
2021-01-06 22:11:11 GMT 40.913086 -85.906654 17,875 260 338 3136
2021-01-06 22:11:04 GMT 40.914993 -85.892426 17,325 261 340 3328
2021-01-06 22:11:00 GMT 40.916111 -85.884186 17,275 260 348 2944
2021-01-06 22:10:55 GMT 40.917370 -85.874756 17,025 260 343 3520
2021-01-06 22:10:49 GMT 40.918766 -85.864456 16,725 260 346 3328
2021-01-06 22:10:44 GMT 40.920456 -85.852173 16,400 260 347 3264
2021-01-06 22:10:39 GMT 40.921745 -85.842735 16,225 260 347 2752
2021-01-06 22:10:34 GMT 40.923477 -85.830017 15,925 260 347 3008
2021-01-06 22:10:28 GMT 40.924942 -85.819153 15,500 260 348 2944
2021-01-06 22:10:22 GMT 40.926960 -85.804222 14,975 260 345 2048
2021-01-06 22:10:18 GMT 40.927658 -85.799225 15,025 260 347 1920
2021-01-06 22:10:14 GMT 40.928833 -85.790649 15,125 260 347 1920
2021-01-06 22:10:11 GMT 40.929798 -85.783310 14,700 260 345 2048
2021-01-06 22:10:07 GMT 40.930637 -85.777069 14,825 260 344 2112
2021-01-06 22:10:04 GMT 40.931717 -85.769043 14,775 261 343 2176
2021-01-06 22:10:00 GMT 40.932999 -85.759155 14,400 261 341 3392
2021-01-06 22:09:57 GMT 40.933571 -85.754845 14,500 261 340 2816
2021-01-06 22:09:54 GMT 40.934593 -85.747040 14,300 261 340 3328
2021-01-06 22:09:49 GMT 40.935654 -85.739075 14,050 260 336 2176
2021-01-06 22:09:46 GMT 40.936455 -85.732681 13,900 260 342 3264
2021-01-06 22:09:39 GMT 40.938412 -85.718269 13,525 260 343 2816
2021-01-06 22:09:36 GMT 40.939178 -85.712708 13,450 261 343 2688
2021-01-06 22:09:32 GMT 40.940598 -85.701965 13,225 261 342 1984
2021-01-06 22:09:29 GMT 40.941158 -85.697601 12,650 261 335 3264
2021-01-06 22:09:25 GMT 40.942108 -85.690430 13,050 260 340 1728
2021-01-06 22:09:20 GMT 40.943939 -85.677002 12,150 260 336 2176
2021-01-06 22:09:15 GMT 40.944836 -85.669952 12,625 260 336 3392
2021-01-06 22:09:11 GMT 40.946091 -85.660652 12,375 260 337 3072
2021-01-06 22:09:06 GMT 40.947628 -85.649292 12,150 260 336 2176
2021-01-06 22:08:59 GMT 40.949615 -85.634583 11,900 260 333 1600
2021-01-06 22:08:54 GMT 40.950653 -85.626816 11,825 261 328 1344
2021-01-06 22:08:48 GMT 40.952377 -85.614273 11,675 261 322 1472
2021-01-06 22:08:45 GMT 40.953003 -85.609375 11,600 261 320 1408
2021-01-06 22:08:41 GMT 40.954285 -85.599602 11,475 261 315 1408
2021-01-06 22:08:38 GMT 40.954834 -85.595215 11,425 261 312 1344
2021-01-06 22:08:30 GMT 40.956753 -85.580811 11,250 260 304 1344
2021-01-06 22:08:27 GMT 40.957672 -85.574097 11,175 261 302 1472
2021-01-06 22:08:23 GMT 40.958405 -85.568298 11,100 260 298 1408
2021-01-06 22:08:20 GMT 40.959358 -85.561333 11,000 260 294 1472
2021-01-06 22:08:14 GMT 40.961872 -85.542862 10,775 260 286 1728
2021-01-06 22:08:09 GMT 40.961872 -85.542862 10,700 261 282 2112
2021-01-06 22:08:03 GMT 40.963131 -85.533058 10,250 261 277 3648
2021-01-06 22:07:57 GMT 40.964573 -85.522011 10,050 260 278 4096
2021-01-06 22:07:53 GMT 40.965412 -85.516022 9,800 261 280 4160
2021-01-06 22:07:49 GMT 40.966434 -85.508217 9,500 260 282 3840
2021-01-06 22:07:43 GMT 40.967972 -85.497192 9,100 260 284 3136
2021-01-06 22:07:39 GMT 40.968437 -85.493919 9,000 260 284 3136
2021-01-06 22:07:35 GMT 40.969528 -85.485901 8,775 261 283 2880
2021-01-06 22:07:30 GMT 40.970581 -85.478088 8,550 260 280 3136
2021-01-06 22:07:26 GMT 40.971928 -85.468452 8,225 260 280 3392
2021-01-06 22:07:18 GMT 40.973370 -85.457718 7,875 261 280 3200
2021-01-06 22:07:15 GMT 40.974068 -85.452347 7,725 261 278 2880
2021-01-06 22:07:07 GMT 40.975979 -85.437302 7,300 261 274 2816
2021-01-06 22:07:04 GMT 40.976398 -85.433998 7,200 261 274 2944
2021-01-06 22:06:55 GMT 40.978500 -85.416931 6,650 261 276 3456
2021-01-06 22:06:44 GMT 40.980743 -85.400574 6,075 260 278 3328
2021-01-06 22:06:36 GMT 40.982895 -85.385132 5,600 260 279 2688
2021-01-06 22:06:33 GMT 40.983334 -85.381935 5,525 260 279 2496
2021-01-06 22:06:24 GMT 40.985641 -85.364990 5,075 260 276 2752
2021-01-06 22:06:13 GMT 40.987976 -85.348816 4,675 260 272 1792
2021-01-06 22:06:03 GMT 40.990082 -85.332123 4,400 263 260 1472
2021-01-06 22:05:53 GMT 40.992233 -85.312195 4,100 262 246 1344
2021-01-06 22:05:39 GMT 40.994019 -85.297119 3,850 262 231 1024
2021-01-06 22:05:30 GMT 40.995483 -85.283142 3,575 264 218 2240

Making use of Plane Finder data

You are free to use the raw flight data, aircraft information and images provided in this report for your own purposes provided the data is correctly attributed to Plane Finder. We ask that you please credit Plane Finder and link to planefinder.net in close proximity to the content.

Optionally one of the following logos (no smaller then 150x24px) can be used and must link to planefinder.net

Embedding the Plane Finder map

You are welcome to embed the Plane Finder playback map on your website to offer visitors a more interactive experience. We suggest using the following HTML code:

<iframe src="//planefinder.net/data/report/AA3283-N751SK-7700-squawk-2021-01-06/map" width="800" height="600" seamless="seamless"></iframe>

Where our data comes from

Plane Finder has a global network of data feeds and antenna radars that receive data broadcast directly from aircraft. The primary technologies used are ADS-B and MLAT. We also show feeds from the FAA and a FLARM glider feed.

Click here to find out more about the Plane Finder network.

How we collect our data